<?xml version="1.0" encoding="UTF-8" standalone="no" ?>
<gpx xmlns="http://www.topografix.com/GPX/1/1" xmlns:xsi="http://www.w3.org/2001/XMLSchema-instance" xsi:schemaLocation="http://www.topografix.com/GPX/1/1 http://www.topografix.com/GPX/1/1/gpx.xsd" version="1.1" creator="VisuGPX - https://www.visugpx.com">
  <metadata>
    <name>PEipin. CEreste téléchargé HW</name>
    <desc><![CDATA[Trajet en ligne au départ de Peipin (Sisteron), arrivée à Cereste en suivant en grande partie le tracé du GR653D.]]></desc>
  </metadata>
  <trk>
    <name><![CDATA[PEIPIN CERESTE GR653D]]></name>
    <trkseg>
      <trkpt lat="44.13738" lon="5.95695">
        <ele>495</ele>
        <time>2017-01-02T13:17:24Z</time>
      </trkpt>
      <trkpt lat="44.13689" lon="5.95688">
        <ele>498</ele>
        <time>2017-01-02T13:17:44Z</time>
      </trkpt>
      <trkpt lat="44.13664" lon="5.95639">
        <ele>494</ele>
        <time>2017-01-02T13:18:04Z</time>
      </trkpt>
      <trkpt lat="44.13604" lon="5.95594">
        <ele>493</ele>
        <time>2017-01-02T13:18:24Z</time>
      </trkpt>
      <trkpt lat="44.1351" lon="5.95854">
        <ele>492</ele>
        <time>2017-01-02T13:18:44Z</time>
      </trkpt>
      <trkpt lat="44.13348" lon="5.95948">
        <ele>477</ele>
        <time>2017-01-02T13:19:04Z</time>
      </trkpt>
      <trkpt lat="44.13449" lon="5.96336">
        <ele>474</ele>
        <time>2017-01-02T13:19:24Z</time>
      </trkpt>
      <trkpt lat="44.13184" lon="5.96532">
        <ele>478</ele>
        <time>2017-01-02T13:19:44Z</time>
      </trkpt>
      <trkpt lat="44.13133" lon="5.96529">
        <ele>480</ele>
        <time>2017-01-02T13:20:04Z</time>
      </trkpt>
      <trkpt lat="44.13085" lon="5.9657">
        <ele>484</ele>
        <time>2017-01-02T13:20:24Z</time>
      </trkpt>
      <trkpt lat="44.13068" lon="5.9651">
        <ele>487</ele>
        <time>2017-01-02T13:20:44Z</time>
      </trkpt>
      <trkpt lat="44.13048" lon="5.96559">
        <ele>492</ele>
        <time>2017-01-02T13:21:04Z</time>
      </trkpt>
      <trkpt lat="44.13028" lon="5.96665">
        <ele>496</ele>
        <time>2017-01-02T13:21:24Z</time>
      </trkpt>
      <trkpt lat="44.13008" lon="5.96727">
        <ele>500</ele>
        <time>2017-01-02T13:21:44Z</time>
      </trkpt>
      <trkpt lat="44.12976" lon="5.96765">
        <ele>504</ele>
        <time>2017-01-02T13:22:04Z</time>
      </trkpt>
      <trkpt lat="44.12982" lon="5.96828">
        <ele>496</ele>
        <time>2017-01-02T13:22:24Z</time>
      </trkpt>
      <trkpt lat="44.12977" lon="5.96871">
        <ele>490</ele>
        <time>2017-01-02T13:22:44Z</time>
      </trkpt>
      <trkpt lat="44.12948" lon="5.96821">
        <ele>499</ele>
        <time>2017-01-02T13:23:04Z</time>
      </trkpt>
      <trkpt lat="44.12909" lon="5.96776">
        <ele>502</ele>
        <time>2017-01-02T13:23:24Z</time>
      </trkpt>
      <trkpt lat="44.12871" lon="5.96776">
        <ele>499</ele>
        <time>2017-01-02T13:23:44Z</time>
      </trkpt>
      <trkpt lat="44.12842" lon="5.96815">
        <ele>499</ele>
        <time>2017-01-02T13:24:04Z</time>
      </trkpt>
      <trkpt lat="44.12816" lon="5.96778">
        <ele>500</ele>
        <time>2017-01-02T13:24:24Z</time>
      </trkpt>
      <trkpt lat="44.12791" lon="5.96776">
        <ele>505</ele>
        <time>2017-01-02T13:24:44Z</time>
      </trkpt>
      <trkpt lat="44.1276" lon="5.96826">
        <ele>513</ele>
        <time>2017-01-02T13:25:04Z</time>
      </trkpt>
      <trkpt lat="44.12735" lon="5.96894">
        <ele>518</ele>
        <time>2017-01-02T13:25:24Z</time>
      </trkpt>
      <trkpt lat="44.12751" lon="5.96944">
        <ele>512</ele>
        <time>2017-01-02T13:25:44Z</time>
      </trkpt>
      <trkpt lat="44.12739" lon="5.96974">
        <ele>515</ele>
        <time>2017-01-02T13:26:04Z</time>
      </trkpt>
      <trkpt lat="44.12669" lon="5.96986">
        <ele>524</ele>
        <time>2017-01-02T13:26:24Z</time>
      </trkpt>
      <trkpt lat="44.12606" lon="5.97021">
        <ele>523</ele>
        <time>2017-01-02T13:26:44Z</time>
      </trkpt>
      <trkpt lat="44.12571" lon="5.9701">
        <ele>528</ele>
        <time>2017-01-02T13:27:04Z</time>
      </trkpt>
      <trkpt lat="44.12435" lon="5.97021">
        <ele>534</ele>
        <time>2017-01-02T13:27:24Z</time>
      </trkpt>
      <trkpt lat="44.12366" lon="5.97012">
        <ele>530</ele>
        <time>2017-01-02T13:27:44Z</time>
      </trkpt>
      <trkpt lat="44.12269" lon="5.9704">
        <ele>520</ele>
        <time>2017-01-02T13:28:04Z</time>
      </trkpt>
      <trkpt lat="44.12172" lon="5.97109">
        <ele>511</ele>
        <time>2017-01-02T13:28:24Z</time>
      </trkpt>
      <trkpt lat="44.12138" lon="5.97107">
        <ele>507</ele>
        <time>2017-01-02T13:28:44Z</time>
      </trkpt>
      <trkpt lat="44.12078" lon="5.97066">
        <ele>506</ele>
        <time>2017-01-02T13:29:04Z</time>
      </trkpt>
      <trkpt lat="44.12038" lon="5.97074">
        <ele>507</ele>
        <time>2017-01-02T13:29:24Z</time>
      </trkpt>
      <trkpt lat="44.12021" lon="5.97126">
        <ele>503</ele>
        <time>2017-01-02T13:29:44Z</time>
      </trkpt>
      <trkpt lat="44.11993" lon="5.97117">
        <ele>506</ele>
        <time>2017-01-02T13:30:04Z</time>
      </trkpt>
      <trkpt lat="44.11936" lon="5.97079">
        <ele>509</ele>
        <time>2017-01-02T13:30:24Z</time>
      </trkpt>
      <trkpt lat="44.11918" lon="5.97012">
        <ele>516</ele>
        <time>2017-01-02T13:30:44Z</time>
      </trkpt>
      <trkpt lat="44.11901" lon="5.97014">
        <ele>516</ele>
        <time>2017-01-02T13:31:04Z</time>
      </trkpt>
      <trkpt lat="44.11891" lon="5.97072">
        <ele>510</ele>
        <time>2017-01-02T13:31:24Z</time>
      </trkpt>
      <trkpt lat="44.11876" lon="5.97098">
        <ele>509</ele>
        <time>2017-01-02T13:31:44Z</time>
      </trkpt>
      <trkpt lat="44.11876" lon="5.97098">
        <ele>509</ele>
        <time>2017-01-02T13:32:04Z</time>
      </trkpt>
      <trkpt lat="44.11882" lon="5.97158">
        <ele>506</ele>
        <time>2017-01-02T13:32:24Z</time>
      </trkpt>
      <trkpt lat="44.11837" lon="5.97285">
        <ele>499</ele>
        <time>2017-01-02T13:32:44Z</time>
      </trkpt>
      <trkpt lat="44.1176" lon="5.97411">
        <ele>486</ele>
        <time>2017-01-02T13:33:04Z</time>
      </trkpt>
      <trkpt lat="44.11714" lon="5.97398">
        <ele>493</ele>
        <time>2017-01-02T13:33:24Z</time>
      </trkpt>
      <trkpt lat="44.11668" lon="5.97388">
        <ele>500</ele>
        <time>2017-01-02T13:33:44Z</time>
      </trkpt>
      <trkpt lat="44.11649" lon="5.97377">
        <ele>501</ele>
        <time>2017-01-02T13:34:04Z</time>
      </trkpt>
      <trkpt lat="44.11592" lon="5.97377">
        <ele>508</ele>
        <time>2017-01-02T13:34:24Z</time>
      </trkpt>
      <trkpt lat="44.11568" lon="5.9736">
        <ele>508</ele>
        <time>2017-01-02T13:34:44Z</time>
      </trkpt>
      <trkpt lat="44.11543" lon="5.97396">
        <ele>517</ele>
        <time>2017-01-02T13:35:04Z</time>
      </trkpt>
      <trkpt lat="44.11494" lon="5.97407">
        <ele>520</ele>
        <time>2017-01-02T13:35:24Z</time>
      </trkpt>
      <trkpt lat="44.11512" lon="5.97364">
        <ele>516</ele>
        <time>2017-01-02T13:35:44Z</time>
      </trkpt>
      <trkpt lat="44.11412" lon="5.9736">
        <ele>524</ele>
        <time>2017-01-02T13:36:04Z</time>
      </trkpt>
      <trkpt lat="44.11331" lon="5.97343">
        <ele>533</ele>
        <time>2017-01-02T13:36:24Z</time>
      </trkpt>
      <trkpt lat="44.11255" lon="5.97317">
        <ele>539</ele>
        <time>2017-01-02T13:36:44Z</time>
      </trkpt>
      <trkpt lat="44.11197" lon="5.97261">
        <ele>543</ele>
        <time>2017-01-02T13:37:04Z</time>
      </trkpt>
      <trkpt lat="44.11104" lon="5.97233">
        <ele>556</ele>
        <time>2017-01-02T13:37:24Z</time>
      </trkpt>
      <trkpt lat="44.11096" lon="5.97197">
        <ele>555</ele>
        <time>2017-01-02T13:37:44Z</time>
      </trkpt>
      <trkpt lat="44.11121" lon="5.97113">
        <ele>546</ele>
        <time>2017-01-02T13:38:04Z</time>
      </trkpt>
      <trkpt lat="44.11053" lon="5.97105">
        <ele>545</ele>
        <time>2017-01-02T13:38:24Z</time>
      </trkpt>
      <trkpt lat="44.11059" lon="5.97066">
        <ele>538</ele>
        <time>2017-01-02T13:38:44Z</time>
      </trkpt>
      <trkpt lat="44.11046" lon="5.97014">
        <ele>540</ele>
        <time>2017-01-02T13:39:04Z</time>
      </trkpt>
      <trkpt lat="44.10939" lon="5.96991">
        <ele>555</ele>
        <time>2017-01-02T13:39:24Z</time>
      </trkpt>
      <trkpt lat="44.10867" lon="5.96963">
        <ele>561</ele>
        <time>2017-01-02T13:39:44Z</time>
      </trkpt>
      <trkpt lat="44.10753" lon="5.96967">
        <ele>577</ele>
        <time>2017-01-02T13:40:04Z</time>
      </trkpt>
      <trkpt lat="44.10705" lon="5.96974">
        <ele>581</ele>
        <time>2017-01-02T13:40:24Z</time>
      </trkpt>
      <trkpt lat="44.1066" lon="5.96959">
        <ele>585</ele>
        <time>2017-01-02T13:40:44Z</time>
      </trkpt>
      <trkpt lat="44.10616" lon="5.9698">
        <ele>590</ele>
        <time>2017-01-02T13:41:04Z</time>
      </trkpt>
      <trkpt lat="44.10502" lon="5.96941">
        <ele>606</ele>
        <time>2017-01-02T13:41:24Z</time>
      </trkpt>
      <trkpt lat="44.10465" lon="5.96937">
        <ele>613</ele>
        <time>2017-01-02T13:41:44Z</time>
      </trkpt>
      <trkpt lat="44.10435" lon="5.9689">
        <ele>617</ele>
        <time>2017-01-02T13:42:04Z</time>
      </trkpt>
      <trkpt lat="44.10383" lon="5.96892">
        <ele>619</ele>
        <time>2017-01-02T13:42:24Z</time>
      </trkpt>
      <trkpt lat="44.10326" lon="5.96811">
        <ele>625</ele>
        <time>2017-01-02T13:42:44Z</time>
      </trkpt>
      <trkpt lat="44.10177" lon="5.96665">
        <ele>649</ele>
        <time>2017-01-02T13:43:04Z</time>
      </trkpt>
      <trkpt lat="44.10113" lon="5.96639">
        <ele>651</ele>
        <time>2017-01-02T13:43:24Z</time>
      </trkpt>
      <trkpt lat="44.10053" lon="5.96641">
        <ele>654</ele>
        <time>2017-01-02T13:43:44Z</time>
      </trkpt>
      <trkpt lat="44.0997" lon="5.96512">
        <ele>651</ele>
        <time>2017-01-02T13:44:04Z</time>
      </trkpt>
      <trkpt lat="44.09927" lon="5.96474">
        <ele>646</ele>
        <time>2017-01-02T13:44:24Z</time>
      </trkpt>
      <trkpt lat="44.0989" lon="5.96424">
        <ele>641</ele>
        <time>2017-01-02T13:44:44Z</time>
      </trkpt>
      <trkpt lat="44.09841" lon="5.96401">
        <ele>633</ele>
        <time>2017-01-02T13:45:04Z</time>
      </trkpt>
      <trkpt lat="44.09794" lon="5.96328">
        <ele>623</ele>
        <time>2017-01-02T13:45:24Z</time>
      </trkpt>
      <trkpt lat="44.09748" lon="5.96323">
        <ele>623</ele>
        <time>2017-01-02T13:45:44Z</time>
      </trkpt>
      <trkpt lat="44.09714" lon="5.96283">
        <ele>629</ele>
        <time>2017-01-02T13:46:04Z</time>
      </trkpt>
      <trkpt lat="44.09628" lon="5.96298">
        <ele>629</ele>
        <time>2017-01-02T13:46:24Z</time>
      </trkpt>
      <trkpt lat="44.09589" lon="5.96257">
        <ele>630</ele>
        <time>2017-01-02T13:46:44Z</time>
      </trkpt>
      <trkpt lat="44.09603" lon="5.96218">
        <ele>634</ele>
        <time>2017-01-02T13:47:04Z</time>
      </trkpt>
      <trkpt lat="44.09588" lon="5.96193">
        <ele>635</ele>
        <time>2017-01-02T13:47:24Z</time>
      </trkpt>
      <trkpt lat="44.09495" lon="5.96173">
        <ele>637</ele>
        <time>2017-01-02T13:47:44Z</time>
      </trkpt>
      <trkpt lat="44.09475" lon="5.96205">
        <ele>639</ele>
        <time>2017-01-02T13:48:04Z</time>
      </trkpt>
      <trkpt lat="44.09405" lon="5.96248">
        <ele>641</ele>
        <time>2017-01-02T13:48:24Z</time>
      </trkpt>
      <trkpt lat="44.0932" lon="5.96229">
        <ele>636</ele>
        <time>2017-01-02T13:48:44Z</time>
      </trkpt>
      <trkpt lat="44.09072" lon="5.96283">
        <ele>604</ele>
        <time>2017-01-02T13:49:04Z</time>
      </trkpt>
      <trkpt lat="44.09025" lon="5.96308">
        <ele>595</ele>
        <time>2017-01-02T13:49:24Z</time>
      </trkpt>
      <trkpt lat="44.09002" lon="5.96369">
        <ele>600</ele>
        <time>2017-01-02T13:49:44Z</time>
      </trkpt>
      <trkpt lat="44.09004" lon="5.96407">
        <ele>602</ele>
        <time>2017-01-02T13:50:04Z</time>
      </trkpt>
      <trkpt lat="44.09022" lon="5.96446">
        <ele>600</ele>
        <time>2017-01-02T13:50:24Z</time>
      </trkpt>
      <trkpt lat="44.09007" lon="5.96534">
        <ele>589</ele>
        <time>2017-01-02T13:50:44Z</time>
      </trkpt>
      <trkpt lat="44.08904" lon="5.9648">
        <ele>586</ele>
        <time>2017-01-02T13:51:04Z</time>
      </trkpt>
      <trkpt lat="44.08853" lon="5.9642">
        <ele>580</ele>
        <time>2017-01-02T13:51:24Z</time>
      </trkpt>
      <trkpt lat="44.08834" lon="5.96364">
        <ele>574</ele>
        <time>2017-01-02T13:51:44Z</time>
      </trkpt>
      <trkpt lat="44.08982" lon="5.9598">
        <ele>557</ele>
        <time>2017-01-02T13:52:04Z</time>
      </trkpt>
      <trkpt lat="44.08942" lon="5.95881">
        <ele>549</ele>
        <time>2017-01-02T13:52:24Z</time>
      </trkpt>
      <trkpt lat="44.08942" lon="5.95793">
        <ele>545</ele>
        <time>2017-01-02T13:52:44Z</time>
      </trkpt>
      <trkpt lat="44.08959" lon="5.95708">
        <ele>544</ele>
        <time>2017-01-02T13:53:04Z</time>
      </trkpt>
      <trkpt lat="44.08993" lon="5.9563">
        <ele>543</ele>
        <time>2017-01-02T13:53:24Z</time>
      </trkpt>
      <trkpt lat="44.08965" lon="5.95545">
        <ele>540</ele>
        <time>2017-01-02T13:53:44Z</time>
      </trkpt>
      <trkpt lat="44.09078" lon="5.95497">
        <ele>544</ele>
        <time>2017-01-02T13:54:04Z</time>
      </trkpt>
      <trkpt lat="44.09183" lon="5.95405">
        <ele>547</ele>
        <time>2017-01-02T13:54:24Z</time>
      </trkpt>
      <trkpt lat="44.09289" lon="5.95261">
        <ele>550</ele>
        <time>2017-01-02T13:54:44Z</time>
      </trkpt>
      <trkpt lat="44.09349" lon="5.95145">
        <ele>554</ele>
        <time>2017-01-02T13:55:04Z</time>
      </trkpt>
      <trkpt lat="44.09377" lon="5.95047">
        <ele>557</ele>
        <time>2017-01-02T13:55:24Z</time>
      </trkpt>
      <trkpt lat="44.09372" lon="5.94976">
        <ele>560</ele>
        <time>2017-01-02T13:55:44Z</time>
      </trkpt>
      <trkpt lat="44.08759" lon="5.9513">
        <ele>561</ele>
        <time>2017-01-02T13:56:04Z</time>
      </trkpt>
      <trkpt lat="44.08688" lon="5.95135">
        <ele>563</ele>
        <time>2017-01-02T13:56:24Z</time>
      </trkpt>
      <trkpt lat="44.0823" lon="5.95366">
        <ele>564</ele>
        <time>2017-01-02T13:56:44Z</time>
      </trkpt>
      <trkpt lat="44.08216" lon="5.95444">
        <ele>566</ele>
        <time>2017-01-02T13:57:04Z</time>
      </trkpt>
      <trkpt lat="44.08196" lon="5.9551">
        <ele>569</ele>
        <time>2017-01-02T13:57:24Z</time>
      </trkpt>
      <trkpt lat="44.08187" lon="5.95587">
        <ele>569</ele>
        <time>2017-01-02T13:57:44Z</time>
      </trkpt>
      <trkpt lat="44.08147" lon="5.9563">
        <ele>574</ele>
        <time>2017-01-02T13:58:04Z</time>
      </trkpt>
      <trkpt lat="44.08142" lon="5.95697">
        <ele>579</ele>
        <time>2017-01-02T13:58:24Z</time>
      </trkpt>
      <trkpt lat="44.08185" lon="5.95808">
        <ele>583</ele>
        <time>2017-01-02T13:58:44Z</time>
      </trkpt>
      <trkpt lat="44.08176" lon="5.95892">
        <ele>585</ele>
        <time>2017-01-02T13:59:04Z</time>
      </trkpt>
      <trkpt lat="44.08158" lon="5.95935">
        <ele>585</ele>
        <time>2017-01-02T13:59:24Z</time>
      </trkpt>
      <trkpt lat="44.08136" lon="5.95903">
        <ele>585</ele>
        <time>2017-01-02T13:59:44Z</time>
      </trkpt>
      <trkpt lat="44.08122" lon="5.95858">
        <ele>594</ele>
        <time>2017-01-02T14:00:04Z</time>
      </trkpt>
      <trkpt lat="44.08073" lon="5.95808">
        <ele>597</ele>
        <time>2017-01-02T14:00:24Z</time>
      </trkpt>
      <trkpt lat="44.08022" lon="5.95802">
        <ele>593</ele>
        <time>2017-01-02T14:00:44Z</time>
      </trkpt>
      <trkpt lat="44.07911" lon="5.95821">
        <ele>597</ele>
        <time>2017-01-02T14:01:04Z</time>
      </trkpt>
      <trkpt lat="44.07879" lon="5.95851">
        <ele>602</ele>
        <time>2017-01-02T14:01:24Z</time>
      </trkpt>
      <trkpt lat="44.07871" lon="5.95946">
        <ele>593</ele>
        <time>2017-01-02T14:01:44Z</time>
      </trkpt>
      <trkpt lat="44.07704" lon="5.95967">
        <ele>595</ele>
        <time>2017-01-02T14:02:04Z</time>
      </trkpt>
      <trkpt lat="44.07538" lon="5.95939">
        <ele>588</ele>
        <time>2017-01-02T14:02:24Z</time>
      </trkpt>
      <trkpt lat="44.07497" lon="5.95944">
        <ele>587</ele>
        <time>2017-01-02T14:02:44Z</time>
      </trkpt>
      <trkpt lat="44.07476" lon="5.9598">
        <ele>590</ele>
        <time>2017-01-02T14:03:04Z</time>
      </trkpt>
      <trkpt lat="44.07474" lon="5.96012">
        <ele>588</ele>
        <time>2017-01-02T14:03:24Z</time>
      </trkpt>
      <trkpt lat="44.07135" lon="5.96154">
        <ele>583</ele>
        <time>2017-01-02T14:03:44Z</time>
      </trkpt>
      <trkpt lat="44.07119" lon="5.96218">
        <ele>575</ele>
        <time>2017-01-02T14:04:04Z</time>
      </trkpt>
      <trkpt lat="44.07095" lon="5.96227">
        <ele>573</ele>
        <time>2017-01-02T14:04:24Z</time>
      </trkpt>
      <trkpt lat="44.0709" lon="5.96197">
        <ele>578</ele>
        <time>2017-01-02T14:04:44Z</time>
      </trkpt>
      <trkpt lat="44.07086" lon="5.96098">
        <ele>589</ele>
        <time>2017-01-02T14:05:04Z</time>
      </trkpt>
      <trkpt lat="44.07012" lon="5.95976">
        <ele>603</ele>
        <time>2017-01-02T14:05:24Z</time>
      </trkpt>
      <trkpt lat="44.07013" lon="5.95903">
        <ele>611</ele>
        <time>2017-01-02T14:05:44Z</time>
      </trkpt>
      <trkpt lat="44.0699" lon="5.95832">
        <ele>615</ele>
        <time>2017-01-02T14:06:04Z</time>
      </trkpt>
      <trkpt lat="44.06944" lon="5.95802">
        <ele>619</ele>
        <time>2017-01-02T14:06:24Z</time>
      </trkpt>
      <trkpt lat="44.06944" lon="5.95699">
        <ele>620</ele>
        <time>2017-01-02T14:06:44Z</time>
      </trkpt>
      <trkpt lat="44.06921" lon="5.95583">
        <ele>617</ele>
        <time>2017-01-02T14:07:04Z</time>
      </trkpt>
      <trkpt lat="44.06924" lon="5.95521">
        <ele>613</ele>
        <time>2017-01-02T14:07:24Z</time>
      </trkpt>
      <trkpt lat="44.06908" lon="5.95349">
        <ele>615</ele>
        <time>2017-01-02T14:07:44Z</time>
      </trkpt>
      <trkpt lat="44.06879" lon="5.95246">
        <ele>612</ele>
        <time>2017-01-02T14:08:04Z</time>
      </trkpt>
      <trkpt lat="44.06848" lon="5.95193">
        <ele>607</ele>
        <time>2017-01-02T14:08:24Z</time>
      </trkpt>
      <trkpt lat="44.06729" lon="5.95105">
        <ele>605</ele>
        <time>2017-01-02T14:08:44Z</time>
      </trkpt>
      <trkpt lat="44.06563" lon="5.94935">
        <ele>602</ele>
        <time>2017-01-02T14:09:04Z</time>
      </trkpt>
      <trkpt lat="44.06344" lon="5.94796">
        <ele>608</ele>
        <time>2017-01-02T14:09:24Z</time>
      </trkpt>
      <trkpt lat="44.06225" lon="5.94744">
        <ele>603</ele>
        <time>2017-01-02T14:09:44Z</time>
      </trkpt>
      <trkpt lat="44.06167" lon="5.94714">
        <ele>595</ele>
        <time>2017-01-02T14:10:04Z</time>
      </trkpt>
      <trkpt lat="44.06128" lon="5.94701">
        <ele>587</ele>
        <time>2017-01-02T14:10:24Z</time>
      </trkpt>
      <trkpt lat="44.06188" lon="5.94691">
        <ele>588</ele>
        <time>2017-01-02T14:10:44Z</time>
      </trkpt>
      <trkpt lat="44.06355" lon="5.94691">
        <ele>580</ele>
        <time>2017-01-02T14:11:04Z</time>
      </trkpt>
      <trkpt lat="44.06285" lon="5.94658">
        <ele>576</ele>
        <time>2017-01-02T14:11:24Z</time>
      </trkpt>
      <trkpt lat="44.06197" lon="5.94648">
        <ele>575</ele>
        <time>2017-01-02T14:11:44Z</time>
      </trkpt>
      <trkpt lat="44.06142" lon="5.946">
        <ele>559</ele>
        <time>2017-01-02T14:12:04Z</time>
      </trkpt>
      <trkpt lat="44.06062" lon="5.94656">
        <ele>558</ele>
        <time>2017-01-02T14:12:24Z</time>
      </trkpt>
      <trkpt lat="44.06116" lon="5.9453">
        <ele>541</ele>
        <time>2017-01-02T14:12:44Z</time>
      </trkpt>
      <trkpt lat="44.06096" lon="5.94515">
        <ele>537</ele>
        <time>2017-01-02T14:13:04Z</time>
      </trkpt>
      <trkpt lat="44.06043" lon="5.94562">
        <ele>533</ele>
        <time>2017-01-02T14:13:24Z</time>
      </trkpt>
      <trkpt lat="44.06032" lon="5.94508">
        <ele>527</ele>
        <time>2017-01-02T14:13:44Z</time>
      </trkpt>
      <trkpt lat="44.05951" lon="5.94446">
        <ele>505</ele>
        <time>2017-01-02T14:14:04Z</time>
      </trkpt>
      <trkpt lat="44.05994" lon="5.94517">
        <ele>517</ele>
        <time>2017-01-02T14:14:24Z</time>
      </trkpt>
      <trkpt lat="44.05997" lon="5.94549">
        <ele>515</ele>
        <time>2017-01-02T14:14:44Z</time>
      </trkpt>
      <trkpt lat="44.05931" lon="5.94506">
        <ele>503</ele>
        <time>2017-01-02T14:15:04Z</time>
      </trkpt>
      <trkpt lat="44.05803" lon="5.94568">
        <ele>467</ele>
        <time>2017-01-02T14:15:24Z</time>
      </trkpt>
      <trkpt lat="44.0579" lon="5.94446">
        <ele>457</ele>
        <time>2017-01-02T14:15:44Z</time>
      </trkpt>
      <trkpt lat="44.05801" lon="5.94304">
        <ele>450</ele>
        <time>2017-01-02T14:16:04Z</time>
      </trkpt>
      <trkpt lat="44.05793" lon="5.9421">
        <ele>458</ele>
        <time>2017-01-02T14:16:24Z</time>
      </trkpt>
      <trkpt lat="44.05727" lon="5.94231">
        <ele>461</ele>
        <time>2017-01-02T14:16:44Z</time>
      </trkpt>
      <trkpt lat="44.05692" lon="5.94225">
        <ele>472</ele>
        <time>2017-01-02T14:17:04Z</time>
      </trkpt>
      <trkpt lat="44.05693" lon="5.94188">
        <ele>474</ele>
        <time>2017-01-02T14:17:24Z</time>
      </trkpt>
      <trkpt lat="44.05619" lon="5.94227">
        <ele>497</ele>
        <time>2017-01-02T14:17:44Z</time>
      </trkpt>
      <trkpt lat="44.05591" lon="5.94214">
        <ele>505</ele>
        <time>2017-01-02T14:18:04Z</time>
      </trkpt>
      <trkpt lat="44.05596" lon="5.94085">
        <ele>523</ele>
        <time>2017-01-02T14:18:24Z</time>
      </trkpt>
      <trkpt lat="44.05571" lon="5.9404">
        <ele>531</ele>
        <time>2017-01-02T14:18:44Z</time>
      </trkpt>
      <trkpt lat="44.05553" lon="5.93965">
        <ele>533</ele>
        <time>2017-01-02T14:19:04Z</time>
      </trkpt>
      <trkpt lat="44.05507" lon="5.93907">
        <ele>533</ele>
        <time>2017-01-02T14:19:24Z</time>
      </trkpt>
      <trkpt lat="44.05436" lon="5.93852">
        <ele>535</ele>
        <time>2017-01-02T14:19:44Z</time>
      </trkpt>
      <trkpt lat="44.05377" lon="5.93826">
        <ele>533</ele>
        <time>2017-01-02T14:20:04Z</time>
      </trkpt>
      <trkpt lat="44.05343" lon="5.93779">
        <ele>533</ele>
        <time>2017-01-02T14:20:24Z</time>
      </trkpt>
      <trkpt lat="44.05312" lon="5.93772">
        <ele>534</ele>
        <time>2017-01-02T14:20:44Z</time>
      </trkpt>
      <trkpt lat="44.053" lon="5.93658">
        <ele>542</ele>
        <time>2017-01-02T14:21:04Z</time>
      </trkpt>
      <trkpt lat="44.05266" lon="5.9357">
        <ele>542</ele>
        <time>2017-01-02T14:21:24Z</time>
      </trkpt>
      <trkpt lat="44.05241" lon="5.93543">
        <ele>540</ele>
        <time>2017-01-02T14:21:44Z</time>
      </trkpt>
      <trkpt lat="44.05238" lon="5.9351">
        <ele>541</ele>
        <time>2017-01-02T14:22:04Z</time>
      </trkpt>
      <trkpt lat="44.05186" lon="5.93502">
        <ele>538</ele>
        <time>2017-01-02T14:22:24Z</time>
      </trkpt>
      <trkpt lat="44.0513" lon="5.93459">
        <ele>534</ele>
        <time>2017-01-02T14:22:44Z</time>
      </trkpt>
      <trkpt lat="44.05099" lon="5.93412">
        <ele>533</ele>
        <time>2017-01-02T14:23:04Z</time>
      </trkpt>
      <trkpt lat="44.05002" lon="5.93412">
        <ele>532</ele>
        <time>2017-01-02T14:23:24Z</time>
      </trkpt>
      <trkpt lat="44.04982" lon="5.93392">
        <ele>534</ele>
        <time>2017-01-02T14:23:44Z</time>
      </trkpt>
      <trkpt lat="44.04975" lon="5.93356">
        <ele>536</ele>
        <time>2017-01-02T14:24:04Z</time>
      </trkpt>
      <trkpt lat="44.04885" lon="5.93418">
        <ele>536</ele>
        <time>2017-01-02T14:24:24Z</time>
      </trkpt>
      <trkpt lat="44.04867" lon="5.93467">
        <ele>532</ele>
        <time>2017-01-02T14:24:44Z</time>
      </trkpt>
      <trkpt lat="44.0483" lon="5.93504">
        <ele>527</ele>
        <time>2017-01-02T14:25:04Z</time>
      </trkpt>
      <trkpt lat="44.04813" lon="5.93562">
        <ele>523</ele>
        <time>2017-01-02T14:25:24Z</time>
      </trkpt>
      <trkpt lat="44.04762" lon="5.93631">
        <ele>508</ele>
        <time>2017-01-02T14:25:44Z</time>
      </trkpt>
      <trkpt lat="44.04786" lon="5.93706">
        <ele>502</ele>
        <time>2017-01-02T14:26:04Z</time>
      </trkpt>
      <trkpt lat="44.04722" lon="5.93637">
        <ele>506</ele>
        <time>2017-01-02T14:26:24Z</time>
      </trkpt>
      <trkpt lat="44.04726" lon="5.93712">
        <ele>504</ele>
        <time>2017-01-02T14:26:44Z</time>
      </trkpt>
      <trkpt lat="44.04672" lon="5.93768">
        <ele>508</ele>
        <time>2017-01-02T14:27:04Z</time>
      </trkpt>
      <trkpt lat="44.04661" lon="5.93837">
        <ele>508</ele>
        <time>2017-01-02T14:27:24Z</time>
      </trkpt>
      <trkpt lat="44.04671" lon="5.93886">
        <ele>508</ele>
        <time>2017-01-02T14:27:44Z</time>
      </trkpt>
      <trkpt lat="44.04661" lon="5.9392">
        <ele>510</ele>
        <time>2017-01-02T14:28:04Z</time>
      </trkpt>
      <trkpt lat="44.04629" lon="5.93952">
        <ele>514</ele>
        <time>2017-01-02T14:28:24Z</time>
      </trkpt>
      <trkpt lat="44.04561" lon="5.94135">
        <ele>498</ele>
        <time>2017-01-02T14:28:44Z</time>
      </trkpt>
      <trkpt lat="44.04404" lon="5.94289">
        <ele>490</ele>
        <time>2017-01-02T14:29:04Z</time>
      </trkpt>
      <trkpt lat="44.04348" lon="5.94274">
        <ele>493</ele>
        <time>2017-01-02T14:29:24Z</time>
      </trkpt>
      <trkpt lat="44.0427" lon="5.94218">
        <ele>492</ele>
        <time>2017-01-02T14:29:44Z</time>
      </trkpt>
      <trkpt lat="44.03755" lon="5.9395">
        <ele>480</ele>
        <time>2017-01-02T14:30:04Z</time>
      </trkpt>
      <trkpt lat="44.03539" lon="5.93886">
        <ele>460</ele>
        <time>2017-01-02T14:30:24Z</time>
      </trkpt>
      <trkpt lat="44.03498" lon="5.93916">
        <ele>460</ele>
        <time>2017-01-02T14:30:44Z</time>
      </trkpt>
      <trkpt lat="44.03441" lon="5.9392">
        <ele>467</ele>
        <time>2017-01-02T14:31:04Z</time>
      </trkpt>
      <trkpt lat="44.03286" lon="5.93845">
        <ele>465</ele>
        <time>2017-01-02T14:31:24Z</time>
      </trkpt>
      <trkpt lat="44.0321" lon="5.93856">
        <ele>460</ele>
        <time>2017-01-02T14:31:44Z</time>
      </trkpt>
      <trkpt lat="44.03165" lon="5.93841">
        <ele>460</ele>
        <time>2017-01-02T14:32:04Z</time>
      </trkpt>
      <trkpt lat="44.03114" lon="5.93813">
        <ele>460</ele>
        <time>2017-01-02T14:32:24Z</time>
      </trkpt>
      <trkpt lat="44.03085" lon="5.93794">
        <ele>461</ele>
        <time>2017-01-02T14:32:44Z</time>
      </trkpt>
      <trkpt lat="44.03033" lon="5.93727">
        <ele>460</ele>
        <time>2017-01-02T14:33:04Z</time>
      </trkpt>
      <trkpt lat="44.02999" lon="5.93753">
        <ele>457</ele>
        <time>2017-01-02T14:33:24Z</time>
      </trkpt>
      <trkpt lat="44.02806" lon="5.93755">
        <ele>427</ele>
        <time>2017-01-02T14:33:44Z</time>
      </trkpt>
      <trkpt lat="44.0277" lon="5.93744">
        <ele>420</ele>
        <time>2017-01-02T14:34:04Z</time>
      </trkpt>
      <trkpt lat="44.02732" lon="5.93701">
        <ele>415</ele>
        <time>2017-01-02T14:34:24Z</time>
      </trkpt>
      <trkpt lat="44.02709" lon="5.93699">
        <ele>412</ele>
        <time>2017-01-02T14:34:44Z</time>
      </trkpt>
      <trkpt lat="44.02652" lon="5.93615">
        <ele>411</ele>
        <time>2017-01-02T14:35:04Z</time>
      </trkpt>
      <trkpt lat="44.02479" lon="5.93446">
        <ele>404</ele>
        <time>2017-01-02T14:35:24Z</time>
      </trkpt>
      <trkpt lat="44.02502" lon="5.93399">
        <ele>406</ele>
        <time>2017-01-02T14:35:44Z</time>
      </trkpt>
      <trkpt lat="44.02559" lon="5.93339">
        <ele>410</ele>
        <time>2017-01-02T14:36:04Z</time>
      </trkpt>
      <trkpt lat="44.02601" lon="5.93276">
        <ele>416</ele>
        <time>2017-01-02T14:36:24Z</time>
      </trkpt>
      <trkpt lat="44.02602" lon="5.93229">
        <ele>417</ele>
        <time>2017-01-02T14:36:44Z</time>
      </trkpt>
      <trkpt lat="44.02559" lon="5.93216">
        <ele>418</ele>
        <time>2017-01-02T14:37:04Z</time>
      </trkpt>
      <trkpt lat="44.02508" lon="5.93152">
        <ele>429</ele>
        <time>2017-01-02T14:37:24Z</time>
      </trkpt>
      <trkpt lat="44.02471" lon="5.93079">
        <ele>447</ele>
        <time>2017-01-02T14:37:44Z</time>
      </trkpt>
      <trkpt lat="44.02395" lon="5.92963">
        <ele>470</ele>
        <time>2017-01-02T14:38:04Z</time>
      </trkpt>
      <trkpt lat="44.02354" lon="5.92884">
        <ele>490</ele>
        <time>2017-01-02T14:38:24Z</time>
      </trkpt>
      <trkpt lat="44.02297" lon="5.92858">
        <ele>492</ele>
        <time>2017-01-02T14:38:44Z</time>
      </trkpt>
      <trkpt lat="44.02269" lon="5.92822">
        <ele>499</ele>
        <time>2017-01-02T14:39:04Z</time>
      </trkpt>
      <trkpt lat="44.02249" lon="5.92774">
        <ele>508</ele>
        <time>2017-01-02T14:39:24Z</time>
      </trkpt>
      <trkpt lat="44.02186" lon="5.92781">
        <ele>498</ele>
        <time>2017-01-02T14:39:44Z</time>
      </trkpt>
      <trkpt lat="44.0207" lon="5.92714">
        <ele>491</ele>
        <time>2017-01-02T14:40:04Z</time>
      </trkpt>
      <trkpt lat="44.02047" lon="5.92594">
        <ele>503</ele>
        <time>2017-01-02T14:40:24Z</time>
      </trkpt>
      <trkpt lat="44.02027" lon="5.92588">
        <ele>504</ele>
        <time>2017-01-02T14:40:44Z</time>
      </trkpt>
      <trkpt lat="44.0196" lon="5.92622">
        <ele>493</ele>
        <time>2017-01-02T14:41:04Z</time>
      </trkpt>
      <trkpt lat="44.01878" lon="5.92566">
        <ele>499</ele>
        <time>2017-01-02T14:41:24Z</time>
      </trkpt>
      <trkpt lat="44.01784" lon="5.92448">
        <ele>489</ele>
        <time>2017-01-02T14:41:44Z</time>
      </trkpt>
      <trkpt lat="44.01821" lon="5.92362">
        <ele>488</ele>
        <time>2017-01-02T14:42:04Z</time>
      </trkpt>
      <trkpt lat="44.01865" lon="5.92227">
        <ele>492</ele>
        <time>2017-01-02T14:42:24Z</time>
      </trkpt>
      <trkpt lat="44.01809" lon="5.92281">
        <ele>470</ele>
        <time>2017-01-02T14:42:44Z</time>
      </trkpt>
      <trkpt lat="44.01684" lon="5.92268">
        <ele>445</ele>
        <time>2017-01-02T14:43:04Z</time>
      </trkpt>
      <trkpt lat="44.01701" lon="5.92223">
        <ele>453</ele>
        <time>2017-01-02T14:43:24Z</time>
      </trkpt>
      <trkpt lat="44.01666" lon="5.92167">
        <ele>448</ele>
        <time>2017-01-02T14:43:44Z</time>
      </trkpt>
      <trkpt lat="44.01652" lon="5.92225">
        <ele>431</ele>
        <time>2017-01-02T14:44:04Z</time>
      </trkpt>
      <trkpt lat="44.01613" lon="5.92283">
        <ele>415</ele>
        <time>2017-01-02T14:44:24Z</time>
      </trkpt>
      <trkpt lat="44.01622" lon="5.92339">
        <ele>416</ele>
        <time>2017-01-02T14:44:44Z</time>
      </trkpt>
      <trkpt lat="44.01607" lon="5.9239">
        <ele>415</ele>
        <time>2017-01-02T14:45:04Z</time>
      </trkpt>
      <trkpt lat="44.01605" lon="5.92468">
        <ele>412</ele>
        <time>2017-01-02T14:45:24Z</time>
      </trkpt>
      <trkpt lat="44.0159" lon="5.92407">
        <ele>409</ele>
        <time>2017-01-02T14:45:44Z</time>
      </trkpt>
      <trkpt lat="44.0157" lon="5.92386">
        <ele>402</ele>
        <time>2017-01-02T14:46:04Z</time>
      </trkpt>
      <trkpt lat="44.0151" lon="5.92366">
        <ele>409</ele>
        <time>2017-01-02T14:46:24Z</time>
      </trkpt>
      <trkpt lat="44.01491" lon="5.92374">
        <ele>410</ele>
        <time>2017-01-02T14:46:44Z</time>
      </trkpt>
      <trkpt lat="44.01446" lon="5.92352">
        <ele>414</ele>
        <time>2017-01-02T14:47:04Z</time>
      </trkpt>
      <trkpt lat="44.01436" lon="5.92338">
        <ele>417</ele>
        <time>2017-01-02T14:47:24Z</time>
      </trkpt>
      <trkpt lat="44.01408" lon="5.92334">
        <ele>413</ele>
        <time>2017-01-02T14:47:44Z</time>
      </trkpt>
      <trkpt lat="44.01408" lon="5.92319">
        <ele>417</ele>
        <time>2017-01-02T14:48:04Z</time>
      </trkpt>
      <trkpt lat="44.01456" lon="5.92328">
        <ele>422</ele>
        <time>2017-01-02T14:48:24Z</time>
      </trkpt>
      <trkpt lat="44.01476" lon="5.92349">
        <ele>417</ele>
        <time>2017-01-02T14:48:44Z</time>
      </trkpt>
      <trkpt lat="44.01497" lon="5.92341">
        <ele>419</ele>
        <time>2017-01-02T14:49:04Z</time>
      </trkpt>
      <trkpt lat="44.01473" lon="5.92314">
        <ele>428</ele>
        <time>2017-01-02T14:49:24Z</time>
      </trkpt>
      <trkpt lat="44.01495" lon="5.92241">
        <ele>440</ele>
        <time>2017-01-02T14:49:44Z</time>
      </trkpt>
      <trkpt lat="44.01406" lon="5.9216">
        <ele>465</ele>
        <time>2017-01-02T14:50:04Z</time>
      </trkpt>
      <trkpt lat="44.01413" lon="5.92127">
        <ele>465</ele>
        <time>2017-01-02T14:50:24Z</time>
      </trkpt>
      <trkpt lat="44.01409" lon="5.92029">
        <ele>463</ele>
        <time>2017-01-02T14:50:44Z</time>
      </trkpt>
      <trkpt lat="44.01385" lon="5.92007">
        <ele>466</ele>
        <time>2017-01-02T14:51:04Z</time>
      </trkpt>
      <trkpt lat="44.01336" lon="5.92001">
        <ele>482</ele>
        <time>2017-01-02T14:51:24Z</time>
      </trkpt>
      <trkpt lat="44.01345" lon="5.91958">
        <ele>480</ele>
        <time>2017-01-02T14:51:44Z</time>
      </trkpt>
      <trkpt lat="44.01375" lon="5.91911">
        <ele>469</ele>
        <time>2017-01-02T14:52:04Z</time>
      </trkpt>
      <trkpt lat="44.01368" lon="5.91889">
        <ele>474</ele>
        <time>2017-01-02T14:52:24Z</time>
      </trkpt>
      <trkpt lat="44.01321" lon="5.91833">
        <ele>475</ele>
        <time>2017-01-02T14:52:44Z</time>
      </trkpt>
      <trkpt lat="44.01282" lon="5.91825">
        <ele>472</ele>
        <time>2017-01-02T14:53:04Z</time>
      </trkpt>
      <trkpt lat="44.01267" lon="5.91715">
        <ele>468</ele>
        <time>2017-01-02T14:53:24Z</time>
      </trkpt>
      <trkpt lat="44.01213" lon="5.91692">
        <ele>478</ele>
        <time>2017-01-02T14:53:44Z</time>
      </trkpt>
      <trkpt lat="44.01165" lon="5.91696">
        <ele>491</ele>
        <time>2017-01-02T14:54:04Z</time>
      </trkpt>
      <trkpt lat="44.0114" lon="5.91668">
        <ele>495</ele>
        <time>2017-01-02T14:54:24Z</time>
      </trkpt>
      <trkpt lat="44.01097" lon="5.91664">
        <ele>508</ele>
        <time>2017-01-02T14:54:44Z</time>
      </trkpt>
      <trkpt lat="44.01071" lon="5.91645">
        <ele>508</ele>
        <time>2017-01-02T14:55:04Z</time>
      </trkpt>
      <trkpt lat="44.01007" lon="5.91664">
        <ele>521</ele>
        <time>2017-01-02T14:55:24Z</time>
      </trkpt>
      <trkpt lat="44.01006" lon="5.91634">
        <ele>519</ele>
        <time>2017-01-02T14:55:44Z</time>
      </trkpt>
      <trkpt lat="44.00935" lon="5.91657">
        <ele>530</ele>
        <time>2017-01-02T14:56:04Z</time>
      </trkpt>
      <trkpt lat="44.00909" lon="5.91565">
        <ele>542</ele>
        <time>2017-01-02T14:56:24Z</time>
      </trkpt>
      <trkpt lat="44.00944" lon="5.91548">
        <ele>546</ele>
        <time>2017-01-02T14:56:44Z</time>
      </trkpt>
      <trkpt lat="44.00981" lon="5.91439">
        <ele>555</ele>
        <time>2017-01-02T14:57:04Z</time>
      </trkpt>
      <trkpt lat="44.00936" lon="5.91439">
        <ele>564</ele>
        <time>2017-01-02T14:57:24Z</time>
      </trkpt>
      <trkpt lat="44.00902" lon="5.91415">
        <ele>565</ele>
        <time>2017-01-02T14:57:44Z</time>
      </trkpt>
      <trkpt lat="44.00896" lon="5.91316">
        <ele>568</ele>
        <time>2017-01-02T14:58:04Z</time>
      </trkpt>
      <trkpt lat="44.00842" lon="5.91278">
        <ele>582</ele>
        <time>2017-01-02T14:58:24Z</time>
      </trkpt>
      <trkpt lat="44.00768" lon="5.91245">
        <ele>596</ele>
        <time>2017-01-02T14:58:44Z</time>
      </trkpt>
      <trkpt lat="44.00776" lon="5.9108">
        <ele>606</ele>
        <time>2017-01-02T14:59:04Z</time>
      </trkpt>
      <trkpt lat="44.00737" lon="5.90979">
        <ele>614</ele>
        <time>2017-01-02T14:59:24Z</time>
      </trkpt>
      <trkpt lat="44.00697" lon="5.909">
        <ele>626</ele>
        <time>2017-01-02T14:59:44Z</time>
      </trkpt>
      <trkpt lat="44.00699" lon="5.90849">
        <ele>627</ele>
        <time>2017-01-02T15:00:04Z</time>
      </trkpt>
      <trkpt lat="44.00589" lon="5.90795">
        <ele>647</ele>
        <time>2017-01-02T15:00:24Z</time>
      </trkpt>
      <trkpt lat="44.00503" lon="5.90788">
        <ele>660</ele>
        <time>2017-01-02T15:00:44Z</time>
      </trkpt>
      <trkpt lat="44.00253" lon="5.90703">
        <ele>682</ele>
        <time>2017-01-02T15:01:04Z</time>
      </trkpt>
      <trkpt lat="44.00203" lon="5.90713">
        <ele>684</ele>
        <time>2017-01-02T15:01:24Z</time>
      </trkpt>
      <trkpt lat="44.00084" lon="5.9061">
        <ele>680</ele>
        <time>2017-01-02T15:01:44Z</time>
      </trkpt>
      <trkpt lat="44.00046" lon="5.9055">
        <ele>680</ele>
        <time>2017-01-02T15:02:04Z</time>
      </trkpt>
      <trkpt lat="43.99981" lon="5.90518">
        <ele>673</ele>
        <time>2017-01-02T15:02:24Z</time>
      </trkpt>
      <trkpt lat="43.99876" lon="5.90555">
        <ele>666</ele>
        <time>2017-01-02T15:02:44Z</time>
      </trkpt>
      <trkpt lat="43.99807" lon="5.90552">
        <ele>662</ele>
        <time>2017-01-02T15:03:04Z</time>
      </trkpt>
      <trkpt lat="43.99763" lon="5.9052">
        <ele>663</ele>
        <time>2017-01-02T15:03:24Z</time>
      </trkpt>
      <trkpt lat="43.99692" lon="5.90537">
        <ele>660</ele>
        <time>2017-01-02T15:03:44Z</time>
      </trkpt>
      <trkpt lat="43.99666" lon="5.90602">
        <ele>655</ele>
        <time>2017-01-02T15:04:04Z</time>
      </trkpt>
      <trkpt lat="43.99606" lon="5.90572">
        <ele>654</ele>
        <time>2017-01-02T15:04:24Z</time>
      </trkpt>
      <trkpt lat="43.99486" lon="5.90628">
        <ele>642</ele>
        <time>2017-01-02T15:04:44Z</time>
      </trkpt>
      <trkpt lat="43.99498" lon="5.9067">
        <ele>636</ele>
        <time>2017-01-02T15:05:04Z</time>
      </trkpt>
      <trkpt lat="43.9949" lon="5.90703">
        <ele>630</ele>
        <time>2017-01-02T15:05:24Z</time>
      </trkpt>
      <trkpt lat="43.99469" lon="5.9072">
        <ele>623</ele>
        <time>2017-01-02T15:05:44Z</time>
      </trkpt>
      <trkpt lat="43.9943" lon="5.90703">
        <ele>624</ele>
        <time>2017-01-02T15:06:04Z</time>
      </trkpt>
      <trkpt lat="43.99419" lon="5.90662">
        <ele>627</ele>
        <time>2017-01-02T15:06:24Z</time>
      </trkpt>
      <trkpt lat="43.99415" lon="5.9061">
        <ele>627</ele>
        <time>2017-01-02T15:06:44Z</time>
      </trkpt>
      <trkpt lat="43.99394" lon="5.90645">
        <ele>618</ele>
        <time>2017-01-02T15:07:04Z</time>
      </trkpt>
      <trkpt lat="43.9937" lon="5.9072">
        <ele>600</ele>
        <time>2017-01-02T15:07:24Z</time>
      </trkpt>
      <trkpt lat="43.99373" lon="5.90808">
        <ele>576</ele>
        <time>2017-01-02T15:07:44Z</time>
      </trkpt>
      <trkpt lat="43.99314" lon="5.90748">
        <ele>574</ele>
        <time>2017-01-02T15:08:04Z</time>
      </trkpt>
      <trkpt lat="43.99294" lon="5.90838">
        <ele>550</ele>
        <time>2017-01-02T15:08:24Z</time>
      </trkpt>
      <trkpt lat="43.9928" lon="5.90866">
        <ele>541</ele>
        <time>2017-01-02T15:08:44Z</time>
      </trkpt>
      <trkpt lat="43.99237" lon="5.90829">
        <ele>535</ele>
        <time>2017-01-02T15:09:04Z</time>
      </trkpt>
      <trkpt lat="43.99235" lon="5.90904">
        <ele>525</ele>
        <time>2017-01-02T15:09:24Z</time>
      </trkpt>
      <trkpt lat="43.99192" lon="5.90859">
        <ele>523</ele>
        <time>2017-01-02T15:09:44Z</time>
      </trkpt>
      <trkpt lat="43.99198" lon="5.90909">
        <ele>518</ele>
        <time>2017-01-02T15:10:04Z</time>
      </trkpt>
      <trkpt lat="43.99181" lon="5.90909">
        <ele>515</ele>
        <time>2017-01-02T15:10:24Z</time>
      </trkpt>
      <trkpt lat="43.99163" lon="5.90853">
        <ele>517</ele>
        <time>2017-01-02T15:10:44Z</time>
      </trkpt>
      <trkpt lat="43.99129" lon="5.90816">
        <ele>513</ele>
        <time>2017-01-02T15:11:04Z</time>
      </trkpt>
      <trkpt lat="43.9911" lon="5.90756">
        <ele>509</ele>
        <time>2017-01-02T15:11:24Z</time>
      </trkpt>
      <trkpt lat="43.98984" lon="5.90799">
        <ele>483</ele>
        <time>2017-01-02T15:11:44Z</time>
      </trkpt>
      <trkpt lat="43.98978" lon="5.90883">
        <ele>478</ele>
        <time>2017-01-02T15:12:04Z</time>
      </trkpt>
      <trkpt lat="43.98919" lon="5.90883">
        <ele>475</ele>
        <time>2017-01-02T15:12:24Z</time>
      </trkpt>
      <trkpt lat="43.98882" lon="5.90894">
        <ele>468</ele>
        <time>2017-01-02T15:12:44Z</time>
      </trkpt>
      <trkpt lat="43.98846" lon="5.90891">
        <ele>461</ele>
        <time>2017-01-02T15:13:04Z</time>
      </trkpt>
      <trkpt lat="43.98799" lon="5.90913">
        <ele>453</ele>
        <time>2017-01-02T15:13:24Z</time>
      </trkpt>
      <trkpt lat="43.98737" lon="5.90913">
        <ele>444</ele>
        <time>2017-01-02T15:13:44Z</time>
      </trkpt>
      <trkpt lat="43.98643" lon="5.9096">
        <ele>429</ele>
        <time>2017-01-02T15:14:04Z</time>
      </trkpt>
      <trkpt lat="43.98556" lon="5.90958">
        <ele>419</ele>
        <time>2017-01-02T15:14:24Z</time>
      </trkpt>
      <trkpt lat="43.98481" lon="5.90988">
        <ele>396</ele>
        <time>2017-01-02T15:14:44Z</time>
      </trkpt>
      <trkpt lat="43.98481" lon="5.90941">
        <ele>394</ele>
        <time>2017-01-02T15:15:04Z</time>
      </trkpt>
      <trkpt lat="43.98462" lon="5.90919">
        <ele>387</ele>
        <time>2017-01-02T15:15:24Z</time>
      </trkpt>
      <trkpt lat="43.9845" lon="5.90864">
        <ele>380</ele>
        <time>2017-01-02T15:15:44Z</time>
      </trkpt>
      <trkpt lat="43.98491" lon="5.90801">
        <ele>381</ele>
        <time>2017-01-02T15:16:04Z</time>
      </trkpt>
      <trkpt lat="43.98508" lon="5.90735">
        <ele>383</ele>
        <time>2017-01-02T15:16:24Z</time>
      </trkpt>
      <trkpt lat="43.98504" lon="5.90619">
        <ele>390</ele>
        <time>2017-01-02T15:16:44Z</time>
      </trkpt>
      <trkpt lat="43.98465" lon="5.90516">
        <ele>393</ele>
        <time>2017-01-02T15:17:04Z</time>
      </trkpt>
      <trkpt lat="43.98383" lon="5.90443">
        <ele>410</ele>
        <time>2017-01-02T15:17:24Z</time>
      </trkpt>
      <trkpt lat="43.98396" lon="5.90364">
        <ele>410</ele>
        <time>2017-01-02T15:17:44Z</time>
      </trkpt>
      <trkpt lat="43.98362" lon="5.90267">
        <ele>417</ele>
        <time>2017-01-02T15:18:04Z</time>
      </trkpt>
      <trkpt lat="43.98369" lon="5.9025">
        <ele>419</ele>
        <time>2017-01-02T15:18:24Z</time>
      </trkpt>
      <trkpt lat="43.98405" lon="5.90269">
        <ele>423</ele>
        <time>2017-01-02T15:18:44Z</time>
      </trkpt>
      <trkpt lat="43.98448" lon="5.90319">
        <ele>428</ele>
        <time>2017-01-02T15:19:04Z</time>
      </trkpt>
      <trkpt lat="43.98481" lon="5.90385">
        <ele>418</ele>
        <time>2017-01-02T15:19:24Z</time>
      </trkpt>
      <trkpt lat="43.98502" lon="5.9037">
        <ele>416</ele>
        <time>2017-01-02T15:19:44Z</time>
      </trkpt>
      <trkpt lat="43.98518" lon="5.90329">
        <ele>414</ele>
        <time>2017-01-02T15:20:04Z</time>
      </trkpt>
      <trkpt lat="43.98511" lon="5.90288">
        <ele>422</ele>
        <time>2017-01-02T15:20:24Z</time>
      </trkpt>
      <trkpt lat="43.98538" lon="5.90246">
        <ele>417</ele>
        <time>2017-01-02T15:20:44Z</time>
      </trkpt>
      <trkpt lat="43.98545" lon="5.90175">
        <ele>420</ele>
        <time>2017-01-02T15:21:04Z</time>
      </trkpt>
      <trkpt lat="43.98533" lon="5.9014">
        <ele>426</ele>
        <time>2017-01-02T15:21:24Z</time>
      </trkpt>
      <trkpt lat="43.98562" lon="5.9008">
        <ele>428</ele>
        <time>2017-01-02T15:21:44Z</time>
      </trkpt>
      <trkpt lat="43.98618" lon="5.90065">
        <ele>421</ele>
        <time>2017-01-02T15:22:04Z</time>
      </trkpt>
      <trkpt lat="43.98667" lon="5.90016">
        <ele>424</ele>
        <time>2017-01-02T15:22:24Z</time>
      </trkpt>
      <trkpt lat="43.98647" lon="5.89975">
        <ele>430</ele>
        <time>2017-01-02T15:22:44Z</time>
      </trkpt>
      <trkpt lat="43.98604" lon="5.89967">
        <ele>435</ele>
        <time>2017-01-02T15:23:04Z</time>
      </trkpt>
      <trkpt lat="43.98569" lon="5.89937">
        <ele>434</ele>
        <time>2017-01-02T15:23:24Z</time>
      </trkpt>
      <trkpt lat="43.98539" lon="5.89868">
        <ele>430</ele>
        <time>2017-01-02T15:23:44Z</time>
      </trkpt>
      <trkpt lat="43.98521" lon="5.89844">
        <ele>432</ele>
        <time>2017-01-02T15:24:04Z</time>
      </trkpt>
      <trkpt lat="43.98536" lon="5.89834">
        <ele>430</ele>
        <time>2017-01-02T15:24:24Z</time>
      </trkpt>
      <trkpt lat="43.98562" lon="5.89838">
        <ele>428</ele>
        <time>2017-01-02T15:24:44Z</time>
      </trkpt>
      <trkpt lat="43.98602" lon="5.8987">
        <ele>422</ele>
        <time>2017-01-02T15:25:04Z</time>
      </trkpt>
      <trkpt lat="43.98619" lon="5.89778">
        <ele>439</ele>
        <time>2017-01-02T15:25:24Z</time>
      </trkpt>
      <trkpt lat="43.98661" lon="5.89836">
        <ele>426</ele>
        <time>2017-01-02T15:25:44Z</time>
      </trkpt>
      <trkpt lat="43.98672" lon="5.89823">
        <ele>427</ele>
        <time>2017-01-02T15:26:04Z</time>
      </trkpt>
      <trkpt lat="43.98667" lon="5.89681">
        <ele>445</ele>
        <time>2017-01-02T15:26:24Z</time>
      </trkpt>
      <trkpt lat="43.98681" lon="5.89692">
        <ele>444</ele>
        <time>2017-01-02T15:26:44Z</time>
      </trkpt>
      <trkpt lat="43.98698" lon="5.8975">
        <ele>437</ele>
        <time>2017-01-02T15:27:04Z</time>
      </trkpt>
      <trkpt lat="43.98745" lon="5.89786">
        <ele>432</ele>
        <time>2017-01-02T15:27:24Z</time>
      </trkpt>
      <trkpt lat="43.9876" lon="5.89765">
        <ele>434</ele>
        <time>2017-01-02T15:27:44Z</time>
      </trkpt>
      <trkpt lat="43.98765" lon="5.89731">
        <ele>440</ele>
        <time>2017-01-02T15:28:04Z</time>
      </trkpt>
      <trkpt lat="43.988" lon="5.89696">
        <ele>433</ele>
        <time>2017-01-02T15:28:24Z</time>
      </trkpt>
      <trkpt lat="43.98785" lon="5.89662">
        <ele>449</ele>
        <time>2017-01-02T15:28:44Z</time>
      </trkpt>
      <trkpt lat="43.988" lon="5.89636">
        <ele>445</ele>
        <time>2017-01-02T15:29:04Z</time>
      </trkpt>
      <trkpt lat="43.98805" lon="5.89565">
        <ele>455</ele>
        <time>2017-01-02T15:29:24Z</time>
      </trkpt>
      <trkpt lat="43.98865" lon="5.89574">
        <ele>444</ele>
        <time>2017-01-02T15:29:44Z</time>
      </trkpt>
      <trkpt lat="43.98908" lon="5.89533">
        <ele>446</ele>
        <time>2017-01-02T15:30:04Z</time>
      </trkpt>
      <trkpt lat="43.98931" lon="5.89488">
        <ele>447</ele>
        <time>2017-01-02T15:30:24Z</time>
      </trkpt>
      <trkpt lat="43.98913" lon="5.89445">
        <ele>452</ele>
        <time>2017-01-02T15:30:44Z</time>
      </trkpt>
      <trkpt lat="43.98842" lon="5.89402">
        <ele>468</ele>
        <time>2017-01-02T15:31:04Z</time>
      </trkpt>
      <trkpt lat="43.98843" lon="5.89374">
        <ele>463</ele>
        <time>2017-01-02T15:31:24Z</time>
      </trkpt>
      <trkpt lat="43.98919" lon="5.89314">
        <ele>463</ele>
        <time>2017-01-02T15:31:44Z</time>
      </trkpt>
      <trkpt lat="43.98959" lon="5.89261">
        <ele>469</ele>
        <time>2017-01-02T15:32:04Z</time>
      </trkpt>
      <trkpt lat="43.98981" lon="5.89188">
        <ele>477</ele>
        <time>2017-01-02T15:32:24Z</time>
      </trkpt>
      <trkpt lat="43.98953" lon="5.89196">
        <ele>479</ele>
        <time>2017-01-02T15:32:44Z</time>
      </trkpt>
      <trkpt lat="43.98928" lon="5.89248">
        <ele>479</ele>
        <time>2017-01-02T15:33:04Z</time>
      </trkpt>
      <trkpt lat="43.98883" lon="5.89261">
        <ele>482</ele>
        <time>2017-01-02T15:33:24Z</time>
      </trkpt>
      <trkpt lat="43.9882" lon="5.89226">
        <ele>500</ele>
        <time>2017-01-02T15:33:44Z</time>
      </trkpt>
      <trkpt lat="43.98843" lon="5.8915">
        <ele>499</ele>
        <time>2017-01-02T15:34:04Z</time>
      </trkpt>
      <trkpt lat="43.98839" lon="5.89061">
        <ele>503</ele>
        <time>2017-01-02T15:34:24Z</time>
      </trkpt>
      <trkpt lat="43.9874" lon="5.88973">
        <ele>526</ele>
        <time>2017-01-02T15:34:44Z</time>
      </trkpt>
      <trkpt lat="43.98694" lon="5.88978">
        <ele>540</ele>
        <time>2017-01-02T15:35:04Z</time>
      </trkpt>
      <trkpt lat="43.98671" lon="5.88926">
        <ele>541</ele>
        <time>2017-01-02T15:35:24Z</time>
      </trkpt>
      <trkpt lat="43.98652" lon="5.88955">
        <ele>546</ele>
        <time>2017-01-02T15:35:44Z</time>
      </trkpt>
      <trkpt lat="43.98411" lon="5.88917">
        <ele>549</ele>
        <time>2017-01-02T15:36:04Z</time>
      </trkpt>
      <trkpt lat="43.98365" lon="5.88992">
        <ele>556</ele>
        <time>2017-01-02T15:36:24Z</time>
      </trkpt>
      <trkpt lat="43.9828" lon="5.89049">
        <ele>567</ele>
        <time>2017-01-02T15:36:44Z</time>
      </trkpt>
      <trkpt lat="43.98096" lon="5.89049">
        <ele>570</ele>
        <time>2017-01-02T15:37:04Z</time>
      </trkpt>
      <trkpt lat="43.97861" lon="5.89102">
        <ele>581</ele>
        <time>2017-01-02T15:37:24Z</time>
      </trkpt>
      <trkpt lat="43.97691" lon="5.89117">
        <ele>587</ele>
        <time>2017-01-02T15:37:44Z</time>
      </trkpt>
      <trkpt lat="43.9761" lon="5.89083">
        <ele>582</ele>
        <time>2017-01-02T15:38:04Z</time>
      </trkpt>
      <trkpt lat="43.97262" lon="5.88954">
        <ele>578</ele>
        <time>2017-01-02T15:38:24Z</time>
      </trkpt>
      <trkpt lat="43.97129" lon="5.88952">
        <ele>578</ele>
        <time>2017-01-02T15:38:44Z</time>
      </trkpt>
      <trkpt lat="43.97068" lon="5.88924">
        <ele>580</ele>
        <time>2017-01-02T15:39:04Z</time>
      </trkpt>
      <trkpt lat="43.96935" lon="5.8895">
        <ele>569</ele>
        <time>2017-01-02T15:39:24Z</time>
      </trkpt>
      <trkpt lat="43.96876" lon="5.88954">
        <ele>565</ele>
        <time>2017-01-02T15:39:44Z</time>
      </trkpt>
      <trkpt lat="43.96848" lon="5.88945">
        <ele>563</ele>
        <time>2017-01-02T15:40:04Z</time>
      </trkpt>
      <trkpt lat="43.96794" lon="5.88771">
        <ele>537</ele>
        <time>2017-01-02T15:40:24Z</time>
      </trkpt>
      <trkpt lat="43.9677" lon="5.88623">
        <ele>520</ele>
        <time>2017-01-02T15:40:44Z</time>
      </trkpt>
      <trkpt lat="43.96828" lon="5.88452">
        <ele>504</ele>
        <time>2017-01-02T15:41:04Z</time>
      </trkpt>
      <trkpt lat="43.96864" lon="5.88262">
        <ele>492</ele>
        <time>2017-01-02T15:41:24Z</time>
      </trkpt>
      <trkpt lat="43.96918" lon="5.88102">
        <ele>482</ele>
        <time>2017-01-02T15:41:44Z</time>
      </trkpt>
      <trkpt lat="43.97023" lon="5.88254">
        <ele>496</ele>
        <time>2017-01-02T15:42:04Z</time>
      </trkpt>
      <trkpt lat="43.9704" lon="5.88175">
        <ele>495</ele>
        <time>2017-01-02T15:42:24Z</time>
      </trkpt>
      <trkpt lat="43.9704" lon="5.88175">
        <ele>495</ele>
        <time>2017-01-02T15:42:44Z</time>
      </trkpt>
      <trkpt lat="43.97075" lon="5.88079">
        <ele>489</ele>
        <time>2017-01-02T15:43:04Z</time>
      </trkpt>
      <trkpt lat="43.97088" lon="5.87967">
        <ele>483</ele>
        <time>2017-01-02T15:43:24Z</time>
      </trkpt>
      <trkpt lat="43.97107" lon="5.87895">
        <ele>482</ele>
        <time>2017-01-02T15:43:44Z</time>
      </trkpt>
      <trkpt lat="43.97091" lon="5.878">
        <ele>478</ele>
        <time>2017-01-02T15:44:04Z</time>
      </trkpt>
      <trkpt lat="43.97078" lon="5.87662">
        <ele>461</ele>
        <time>2017-01-02T15:44:24Z</time>
      </trkpt>
      <trkpt lat="43.97146" lon="5.87346">
        <ele>437</ele>
        <time>2017-01-02T15:44:44Z</time>
      </trkpt>
      <trkpt lat="43.97182" lon="5.87165">
        <ele>437</ele>
        <time>2017-01-02T15:45:04Z</time>
      </trkpt>
      <trkpt lat="43.97093" lon="5.87077">
        <ele>431</ele>
        <time>2017-01-02T15:45:24Z</time>
      </trkpt>
      <trkpt lat="43.96931" lon="5.87042">
        <ele>426</ele>
        <time>2017-01-02T15:45:44Z</time>
      </trkpt>
      <trkpt lat="43.96826" lon="5.87077">
        <ele>428</ele>
        <time>2017-01-02T15:46:04Z</time>
      </trkpt>
      <trkpt lat="43.96754" lon="5.87043">
        <ele>426</ele>
        <time>2017-01-02T15:46:24Z</time>
      </trkpt>
      <trkpt lat="43.96703" lon="5.87056">
        <ele>431</ele>
        <time>2017-01-02T15:46:44Z</time>
      </trkpt>
      <trkpt lat="43.96643" lon="5.8688">
        <ele>426</ele>
        <time>2017-01-02T15:47:04Z</time>
      </trkpt>
      <trkpt lat="43.96573" lon="5.86625">
        <ele>417</ele>
        <time>2017-01-02T15:47:24Z</time>
      </trkpt>
      <trkpt lat="43.96544" lon="5.86602">
        <ele>415</ele>
        <time>2017-01-02T15:47:44Z</time>
      </trkpt>
      <trkpt lat="43.96408" lon="5.86612">
        <ele>418</ele>
        <time>2017-01-02T15:48:04Z</time>
      </trkpt>
      <trkpt lat="43.96408" lon="5.86473">
        <ele>420</ele>
        <time>2017-01-02T15:48:24Z</time>
      </trkpt>
      <trkpt lat="43.96385" lon="5.8642">
        <ele>422</ele>
        <time>2017-01-02T15:48:44Z</time>
      </trkpt>
      <trkpt lat="43.96311" lon="5.86389">
        <ele>421</ele>
        <time>2017-01-02T15:49:04Z</time>
      </trkpt>
      <trkpt lat="43.96274" lon="5.86327">
        <ele>426</ele>
        <time>2017-01-02T15:49:24Z</time>
      </trkpt>
      <trkpt lat="43.96286" lon="5.86199">
        <ele>435</ele>
        <time>2017-01-02T15:49:44Z</time>
      </trkpt>
      <trkpt lat="43.96307" lon="5.86118">
        <ele>440</ele>
        <time>2017-01-02T15:50:04Z</time>
      </trkpt>
      <trkpt lat="43.96318" lon="5.86016">
        <ele>444</ele>
        <time>2017-01-02T15:50:24Z</time>
      </trkpt>
      <trkpt lat="43.96303" lon="5.85973">
        <ele>443</ele>
        <time>2017-01-02T15:50:44Z</time>
      </trkpt>
      <trkpt lat="43.96325" lon="5.85688">
        <ele>442</ele>
        <time>2017-01-02T15:51:04Z</time>
      </trkpt>
      <trkpt lat="43.96349" lon="5.85518">
        <ele>442</ele>
        <time>2017-01-02T15:51:24Z</time>
      </trkpt>
      <trkpt lat="43.9637" lon="5.85465">
        <ele>445</ele>
        <time>2017-01-02T15:51:44Z</time>
      </trkpt>
      <trkpt lat="43.96376" lon="5.85357">
        <ele>447</ele>
        <time>2017-01-02T15:52:04Z</time>
      </trkpt>
      <trkpt lat="43.96224" lon="5.85305">
        <ele>449</ele>
        <time>2017-01-02T15:52:24Z</time>
      </trkpt>
      <trkpt lat="43.9619" lon="5.85258">
        <ele>451</ele>
        <time>2017-01-02T15:52:44Z</time>
      </trkpt>
      <trkpt lat="43.96148" lon="5.85217">
        <ele>453</ele>
        <time>2017-01-02T15:53:04Z</time>
      </trkpt>
      <trkpt lat="43.9619" lon="5.85076">
        <ele>451</ele>
        <time>2017-01-02T15:53:24Z</time>
      </trkpt>
      <trkpt lat="43.96175" lon="5.84694">
        <ele>451</ele>
        <time>2017-01-02T15:53:44Z</time>
      </trkpt>
      <trkpt lat="43.96153" lon="5.84417">
        <ele>447</ele>
        <time>2017-01-02T15:54:04Z</time>
      </trkpt>
      <trkpt lat="43.96182" lon="5.8429">
        <ele>453</ele>
        <time>2017-01-02T15:54:24Z</time>
      </trkpt>
      <trkpt lat="43.96159" lon="5.84147">
        <ele>453</ele>
        <time>2017-01-02T15:54:44Z</time>
      </trkpt>
      <trkpt lat="43.96122" lon="5.84112">
        <ele>450</ele>
        <time>2017-01-02T15:55:04Z</time>
      </trkpt>
      <trkpt lat="43.96127" lon="5.84065">
        <ele>449</ele>
        <time>2017-01-02T15:55:24Z</time>
      </trkpt>
      <trkpt lat="43.9611" lon="5.84024">
        <ele>446</ele>
        <time>2017-01-02T15:55:44Z</time>
      </trkpt>
      <trkpt lat="43.96229" lon="5.8388">
        <ele>456</ele>
        <time>2017-01-02T15:56:04Z</time>
      </trkpt>
      <trkpt lat="43.96122" lon="5.83786">
        <ele>449</ele>
        <time>2017-01-02T15:56:24Z</time>
      </trkpt>
      <trkpt lat="43.96113" lon="5.83655">
        <ele>452</ele>
        <time>2017-01-02T15:56:44Z</time>
      </trkpt>
      <trkpt lat="43.96093" lon="5.83563">
        <ele>450</ele>
        <time>2017-01-02T15:57:04Z</time>
      </trkpt>
      <trkpt lat="43.96119" lon="5.83434">
        <ele>454</ele>
        <time>2017-01-02T15:57:24Z</time>
      </trkpt>
      <trkpt lat="43.96126" lon="5.83346">
        <ele>457</ele>
        <time>2017-01-02T15:57:44Z</time>
      </trkpt>
      <trkpt lat="43.96196" lon="5.83256">
        <ele>460</ele>
        <time>2017-01-02T15:58:04Z</time>
      </trkpt>
      <trkpt lat="43.96271" lon="5.83121">
        <ele>460</ele>
        <time>2017-01-02T15:58:24Z</time>
      </trkpt>
      <trkpt lat="43.96315" lon="5.83117">
        <ele>462</ele>
        <time>2017-01-02T15:58:44Z</time>
      </trkpt>
      <trkpt lat="43.96318" lon="5.83052">
        <ele>463</ele>
        <time>2017-01-02T15:59:04Z</time>
      </trkpt>
      <trkpt lat="43.96437" lon="5.82833">
        <ele>476</ele>
        <time>2017-01-02T15:59:24Z</time>
      </trkpt>
      <trkpt lat="43.96484" lon="5.82726">
        <ele>484</ele>
        <time>2017-01-02T15:59:44Z</time>
      </trkpt>
      <trkpt lat="43.96541" lon="5.82711">
        <ele>482</ele>
        <time>2017-01-02T16:00:04Z</time>
      </trkpt>
      <trkpt lat="43.96611" lon="5.82654">
        <ele>482</ele>
        <time>2017-01-02T16:00:24Z</time>
      </trkpt>
      <trkpt lat="43.96651" lon="5.82632">
        <ele>482</ele>
        <time>2017-01-02T16:00:44Z</time>
      </trkpt>
      <trkpt lat="43.96857" lon="5.82511">
        <ele>490</ele>
        <time>2017-01-02T16:01:04Z</time>
      </trkpt>
      <trkpt lat="43.96879" lon="5.82428">
        <ele>493</ele>
        <time>2017-01-02T16:01:24Z</time>
      </trkpt>
      <trkpt lat="43.96833" lon="5.82428">
        <ele>493</ele>
        <time>2017-01-02T16:01:44Z</time>
      </trkpt>
      <trkpt lat="43.96947" lon="5.82177">
        <ele>510</ele>
        <time>2017-01-02T16:02:04Z</time>
      </trkpt>
      <trkpt lat="43.96972" lon="5.81795">
        <ele>523</ele>
        <time>2017-01-02T16:02:24Z</time>
      </trkpt>
      <trkpt lat="43.97029" lon="5.81825">
        <ele>524</ele>
        <time>2017-01-02T16:02:44Z</time>
      </trkpt>
      <trkpt lat="43.97083" lon="5.8181">
        <ele>526</ele>
        <time>2017-01-02T16:03:04Z</time>
      </trkpt>
      <trkpt lat="43.97137" lon="5.81681">
        <ele>536</ele>
        <time>2017-01-02T16:03:24Z</time>
      </trkpt>
      <trkpt lat="43.97225" lon="5.81557">
        <ele>545</ele>
        <time>2017-01-02T16:03:44Z</time>
      </trkpt>
      <trkpt lat="43.97228" lon="5.81498">
        <ele>551</ele>
        <time>2017-01-02T16:04:04Z</time>
      </trkpt>
      <trkpt lat="43.97265" lon="5.81443">
        <ele>557</ele>
        <time>2017-01-02T16:04:24Z</time>
      </trkpt>
      <trkpt lat="43.97256" lon="5.81389">
        <ele>562</ele>
        <time>2017-01-02T16:04:44Z</time>
      </trkpt>
      <trkpt lat="43.97288" lon="5.81342">
        <ele>565</ele>
        <time>2017-01-02T16:05:04Z</time>
      </trkpt>
      <trkpt lat="43.97287" lon="5.81258">
        <ele>568</ele>
        <time>2017-01-02T16:05:24Z</time>
      </trkpt>
      <trkpt lat="43.97262" lon="5.81166">
        <ele>567</ele>
        <time>2017-01-02T16:05:44Z</time>
      </trkpt>
      <trkpt lat="43.97245" lon="5.81054">
        <ele>564</ele>
        <time>2017-01-02T16:06:04Z</time>
      </trkpt>
      <trkpt lat="43.97165" lon="5.80999">
        <ele>560</ele>
        <time>2017-01-02T16:06:24Z</time>
      </trkpt>
      <trkpt lat="43.97109" lon="5.80949">
        <ele>556</ele>
        <time>2017-01-02T16:06:44Z</time>
      </trkpt>
      <trkpt lat="43.97089" lon="5.80905">
        <ele>554</ele>
        <time>2017-01-02T16:07:04Z</time>
      </trkpt>
      <trkpt lat="43.97057" lon="5.80891">
        <ele>551</ele>
        <time>2017-01-02T16:07:24Z</time>
      </trkpt>
      <trkpt lat="43.97023" lon="5.80889">
        <ele>549</ele>
        <time>2017-01-02T16:07:44Z</time>
      </trkpt>
      <trkpt lat="43.96989" lon="5.80876">
        <ele>547</ele>
        <time>2017-01-02T16:08:04Z</time>
      </trkpt>
      <trkpt lat="43.96848" lon="5.80936">
        <ele>536</ele>
        <time>2017-01-02T16:08:24Z</time>
      </trkpt>
      <trkpt lat="43.96851" lon="5.80917">
        <ele>536</ele>
        <time>2017-01-02T16:08:44Z</time>
      </trkpt>
      <trkpt lat="43.96893" lon="5.80767">
        <ele>540</ele>
        <time>2017-01-02T16:09:04Z</time>
      </trkpt>
      <trkpt lat="43.96903" lon="5.80631">
        <ele>529</ele>
        <time>2017-01-02T16:09:24Z</time>
      </trkpt>
      <trkpt lat="43.96901" lon="5.80485">
        <ele>519</ele>
        <time>2017-01-02T16:09:44Z</time>
      </trkpt>
      <trkpt lat="43.96897" lon="5.80413">
        <ele>514</ele>
        <time>2017-01-02T16:10:04Z</time>
      </trkpt>
      <trkpt lat="43.96898" lon="5.80243">
        <ele>495</ele>
        <time>2017-01-02T16:10:24Z</time>
      </trkpt>
      <trkpt lat="43.96873" lon="5.80184">
        <ele>487</ele>
        <time>2017-01-02T16:10:44Z</time>
      </trkpt>
      <trkpt lat="43.96797" lon="5.80164">
        <ele>482</ele>
        <time>2017-01-02T16:11:04Z</time>
      </trkpt>
      <trkpt lat="43.96756" lon="5.80081">
        <ele>470</ele>
        <time>2017-01-02T16:11:24Z</time>
      </trkpt>
      <trkpt lat="43.96783" lon="5.80048">
        <ele>471</ele>
        <time>2017-01-02T16:11:44Z</time>
      </trkpt>
      <trkpt lat="43.96838" lon="5.80054">
        <ele>472</ele>
        <time>2017-01-02T16:12:04Z</time>
      </trkpt>
      <trkpt lat="43.96848" lon="5.79995">
        <ele>478</ele>
        <time>2017-01-02T16:12:24Z</time>
      </trkpt>
      <trkpt lat="43.96878" lon="5.79994">
        <ele>479</ele>
        <time>2017-01-02T16:12:44Z</time>
      </trkpt>
      <trkpt lat="43.96914" lon="5.79981">
        <ele>480</ele>
        <time>2017-01-02T16:13:04Z</time>
      </trkpt>
      <trkpt lat="43.96986" lon="5.79918">
        <ele>481</ele>
        <time>2017-01-02T16:13:24Z</time>
      </trkpt>
      <trkpt lat="43.97035" lon="5.79857">
        <ele>481</ele>
        <time>2017-01-02T16:13:44Z</time>
      </trkpt>
      <trkpt lat="43.97093" lon="5.7987">
        <ele>480</ele>
        <time>2017-01-02T16:14:04Z</time>
      </trkpt>
      <trkpt lat="43.97137" lon="5.79773">
        <ele>491</ele>
        <time>2017-01-02T16:14:24Z</time>
      </trkpt>
      <trkpt lat="43.97162" lon="5.79762">
        <ele>495</ele>
        <time>2017-01-02T16:14:44Z</time>
      </trkpt>
      <trkpt lat="43.97223" lon="5.79658">
        <ele>497</ele>
        <time>2017-01-02T16:15:04Z</time>
      </trkpt>
      <trkpt lat="43.97203" lon="5.79603">
        <ele>493</ele>
        <time>2017-01-02T16:15:24Z</time>
      </trkpt>
      <trkpt lat="43.97222" lon="5.79576">
        <ele>493</ele>
        <time>2017-01-02T16:15:44Z</time>
      </trkpt>
      <trkpt lat="43.97194" lon="5.79533">
        <ele>496</ele>
        <time>2017-01-02T16:16:04Z</time>
      </trkpt>
      <trkpt lat="43.97137" lon="5.7957">
        <ele>501</ele>
        <time>2017-01-02T16:16:24Z</time>
      </trkpt>
      <trkpt lat="43.9713" lon="5.79546">
        <ele>506</ele>
        <time>2017-01-02T16:16:44Z</time>
      </trkpt>
      <trkpt lat="43.97079" lon="5.79578">
        <ele>513</ele>
        <time>2017-01-02T16:17:04Z</time>
      </trkpt>
      <trkpt lat="43.97028" lon="5.79566">
        <ele>527</ele>
        <time>2017-01-02T16:17:24Z</time>
      </trkpt>
      <trkpt lat="43.9696" lon="5.79606">
        <ele>532</ele>
        <time>2017-01-02T16:17:44Z</time>
      </trkpt>
      <trkpt lat="43.96904" lon="5.79531">
        <ele>548</ele>
        <time>2017-01-02T16:18:04Z</time>
      </trkpt>
      <trkpt lat="43.96824" lon="5.79529">
        <ele>543</ele>
        <time>2017-01-02T16:18:24Z</time>
      </trkpt>
      <trkpt lat="43.96774" lon="5.79465">
        <ele>541</ele>
        <time>2017-01-02T16:18:44Z</time>
      </trkpt>
      <trkpt lat="43.96771" lon="5.79375">
        <ele>538</ele>
        <time>2017-01-02T16:19:04Z</time>
      </trkpt>
      <trkpt lat="43.96708" lon="5.79407">
        <ele>532</ele>
        <time>2017-01-02T16:19:24Z</time>
      </trkpt>
      <trkpt lat="43.9669" lon="5.79192">
        <ele>552</ele>
        <time>2017-01-02T16:19:44Z</time>
      </trkpt>
      <trkpt lat="43.96667" lon="5.79106">
        <ele>554</ele>
        <time>2017-01-02T16:20:04Z</time>
      </trkpt>
      <trkpt lat="43.9676" lon="5.79182">
        <ele>557</ele>
        <time>2017-01-02T16:20:24Z</time>
      </trkpt>
      <trkpt lat="43.96797" lon="5.7915">
        <ele>561</ele>
        <time>2017-01-02T16:20:44Z</time>
      </trkpt>
      <trkpt lat="43.96833" lon="5.79046">
        <ele>571</ele>
        <time>2017-01-02T16:21:04Z</time>
      </trkpt>
      <trkpt lat="43.96932" lon="5.78941">
        <ele>578</ele>
        <time>2017-01-02T16:21:24Z</time>
      </trkpt>
      <trkpt lat="43.96975" lon="5.78868">
        <ele>584</ele>
        <time>2017-01-02T16:21:44Z</time>
      </trkpt>
      <trkpt lat="43.96979" lon="5.7871">
        <ele>596</ele>
        <time>2017-01-02T16:22:04Z</time>
      </trkpt>
      <trkpt lat="43.97009" lon="5.78563">
        <ele>602</ele>
        <time>2017-01-02T16:22:24Z</time>
      </trkpt>
      <trkpt lat="43.97123" lon="5.78307">
        <ele>619</ele>
        <time>2017-01-02T16:22:44Z</time>
      </trkpt>
      <trkpt lat="43.97149" lon="5.78236">
        <ele>620</ele>
        <time>2017-01-02T16:23:04Z</time>
      </trkpt>
      <trkpt lat="43.9719" lon="5.78188">
        <ele>618</ele>
        <time>2017-01-02T16:23:24Z</time>
      </trkpt>
      <trkpt lat="43.97239" lon="5.78068">
        <ele>620</ele>
        <time>2017-01-02T16:23:44Z</time>
      </trkpt>
      <trkpt lat="43.97137" lon="5.78102">
        <ele>612</ele>
        <time>2017-01-02T16:24:04Z</time>
      </trkpt>
      <trkpt lat="43.96994" lon="5.78237">
        <ele>592</ele>
        <time>2017-01-02T16:24:24Z</time>
      </trkpt>
      <trkpt lat="43.96921" lon="5.78256">
        <ele>582</ele>
        <time>2017-01-02T16:24:44Z</time>
      </trkpt>
      <trkpt lat="43.96904" lon="5.78282">
        <ele>584</ele>
        <time>2017-01-02T16:25:04Z</time>
      </trkpt>
      <trkpt lat="43.9684" lon="5.78307">
        <ele>581</ele>
        <time>2017-01-02T16:25:24Z</time>
      </trkpt>
      <trkpt lat="43.96753" lon="5.78324">
        <ele>571</ele>
        <time>2017-01-02T16:25:44Z</time>
      </trkpt>
      <trkpt lat="43.96659" lon="5.78312">
        <ele>558</ele>
        <time>2017-01-02T16:26:04Z</time>
      </trkpt>
      <trkpt lat="43.96517" lon="5.7839">
        <ele>559</ele>
        <time>2017-01-02T16:26:24Z</time>
      </trkpt>
      <trkpt lat="43.96464" lon="5.78487">
        <ele>556</ele>
        <time>2017-01-02T16:26:44Z</time>
      </trkpt>
      <trkpt lat="43.96418" lon="5.78534">
        <ele>551</ele>
        <time>2017-01-02T16:27:04Z</time>
      </trkpt>
      <trkpt lat="43.96226" lon="5.78277">
        <ele>543</ele>
        <time>2017-01-02T16:27:24Z</time>
      </trkpt>
      <trkpt lat="43.96146" lon="5.78151">
        <ele>544</ele>
        <time>2017-01-02T16:27:44Z</time>
      </trkpt>
      <trkpt lat="43.95992" lon="5.78099">
        <ele>544</ele>
        <time>2017-01-02T16:28:04Z</time>
      </trkpt>
      <trkpt lat="43.95964" lon="5.78132">
        <ele>546</ele>
        <time>2017-01-02T16:28:24Z</time>
      </trkpt>
      <trkpt lat="43.95952" lon="5.78088">
        <ele>546</ele>
        <time>2017-01-02T16:28:44Z</time>
      </trkpt>
      <trkpt lat="43.95908" lon="5.78049">
        <ele>546</ele>
        <time>2017-01-02T16:29:04Z</time>
      </trkpt>
      <trkpt lat="43.95857" lon="5.77972">
        <ele>542</ele>
        <time>2017-01-02T16:29:24Z</time>
      </trkpt>
      <trkpt lat="43.95779" lon="5.7794">
        <ele>538</ele>
        <time>2017-01-02T16:29:44Z</time>
      </trkpt>
      <trkpt lat="43.95664" lon="5.77931">
        <ele>533</ele>
        <time>2017-01-02T16:30:04Z</time>
      </trkpt>
      <trkpt lat="43.95482" lon="5.78014">
        <ele>521</ele>
        <time>2017-01-02T16:30:24Z</time>
      </trkpt>
      <trkpt lat="43.95416" lon="5.78026">
        <ele>513</ele>
        <time>2017-01-02T16:30:44Z</time>
      </trkpt>
      <trkpt lat="43.95241" lon="5.77994">
        <ele>495</ele>
        <time>2017-01-02T16:31:04Z</time>
      </trkpt>
      <trkpt lat="43.95157" lon="5.77969">
        <ele>491</ele>
        <time>2017-01-02T16:31:24Z</time>
      </trkpt>
      <trkpt lat="43.95108" lon="5.77926">
        <ele>493</ele>
        <time>2017-01-02T16:31:44Z</time>
      </trkpt>
      <trkpt lat="43.95062" lon="5.77842">
        <ele>483</ele>
        <time>2017-01-02T16:32:04Z</time>
      </trkpt>
      <trkpt lat="43.94911" lon="5.77827">
        <ele>476</ele>
        <time>2017-01-02T16:32:24Z</time>
      </trkpt>
      <trkpt lat="43.94847" lon="5.77673">
        <ele>461</ele>
        <time>2017-01-02T16:32:44Z</time>
      </trkpt>
      <trkpt lat="43.94721" lon="5.77623">
        <ele>469</ele>
        <time>2017-01-02T16:33:04Z</time>
      </trkpt>
      <trkpt lat="43.94661" lon="5.7755">
        <ele>474</ele>
        <time>2017-01-02T16:33:24Z</time>
      </trkpt>
      <trkpt lat="43.9459" lon="5.77441">
        <ele>483</ele>
        <time>2017-01-02T16:33:44Z</time>
      </trkpt>
      <trkpt lat="43.94465" lon="5.77362">
        <ele>494</ele>
        <time>2017-01-02T16:34:04Z</time>
      </trkpt>
      <trkpt lat="43.94406" lon="5.77284">
        <ele>494</ele>
        <time>2017-01-02T16:34:24Z</time>
      </trkpt>
      <trkpt lat="43.94311" lon="5.77113">
        <ele>484</ele>
        <time>2017-01-02T16:34:44Z</time>
      </trkpt>
      <trkpt lat="43.94235" lon="5.7703">
        <ele>473</ele>
        <time>2017-01-02T16:35:04Z</time>
      </trkpt>
      <trkpt lat="43.94119" lon="5.76992">
        <ele>473</ele>
        <time>2017-01-02T16:35:24Z</time>
      </trkpt>
      <trkpt lat="43.94111" lon="5.76923">
        <ele>469</ele>
        <time>2017-01-02T16:35:44Z</time>
      </trkpt>
      <trkpt lat="43.94006" lon="5.76888">
        <ele>456</ele>
        <time>2017-01-02T16:36:04Z</time>
      </trkpt>
      <trkpt lat="43.93934" lon="5.76842">
        <ele>455</ele>
        <time>2017-01-02T16:36:24Z</time>
      </trkpt>
      <trkpt lat="43.93859" lon="5.76716">
        <ele>456</ele>
        <time>2017-01-02T16:36:44Z</time>
      </trkpt>
      <trkpt lat="43.93803" lon="5.76703">
        <ele>454</ele>
        <time>2017-01-02T16:37:04Z</time>
      </trkpt>
      <trkpt lat="43.93671" lon="5.76559">
        <ele>442</ele>
        <time>2017-01-02T16:37:24Z</time>
      </trkpt>
      <trkpt lat="43.93572" lon="5.76463">
        <ele>439</ele>
        <time>2017-01-02T16:37:44Z</time>
      </trkpt>
      <trkpt lat="43.93555" lon="5.76336">
        <ele>439</ele>
        <time>2017-01-02T16:38:04Z</time>
      </trkpt>
      <trkpt lat="43.93612" lon="5.76164">
        <ele>442</ele>
        <time>2017-01-02T16:38:24Z</time>
      </trkpt>
      <trkpt lat="43.93614" lon="5.76089">
        <ele>442</ele>
        <time>2017-01-02T16:38:44Z</time>
      </trkpt>
      <trkpt lat="43.93508" lon="5.76027">
        <ele>439</ele>
        <time>2017-01-02T16:39:04Z</time>
      </trkpt>
      <trkpt lat="43.93565" lon="5.75922">
        <ele>445</ele>
        <time>2017-01-02T16:39:24Z</time>
      </trkpt>
      <trkpt lat="43.93525" lon="5.75894">
        <ele>444</ele>
        <time>2017-01-02T16:39:44Z</time>
      </trkpt>
      <trkpt lat="43.93443" lon="5.75787">
        <ele>441</ele>
        <time>2017-01-02T16:40:04Z</time>
      </trkpt>
      <trkpt lat="43.93425" lon="5.75748">
        <ele>441</ele>
        <time>2017-01-02T16:40:24Z</time>
      </trkpt>
      <trkpt lat="43.93408" lon="5.75658">
        <ele>446</ele>
        <time>2017-01-02T16:40:44Z</time>
      </trkpt>
      <trkpt lat="43.93369" lon="5.75581">
        <ele>450</ele>
        <time>2017-01-02T16:41:04Z</time>
      </trkpt>
      <trkpt lat="43.93371" lon="5.75422">
        <ele>442</ele>
        <time>2017-01-02T16:41:24Z</time>
      </trkpt>
      <trkpt lat="43.93244" lon="5.75476">
        <ele>433</ele>
        <time>2017-01-02T16:41:44Z</time>
      </trkpt>
      <trkpt lat="43.93213" lon="5.75533">
        <ele>430</ele>
        <time>2017-01-02T16:42:04Z</time>
      </trkpt>
      <trkpt lat="43.93148" lon="5.7569">
        <ele>431</ele>
        <time>2017-01-02T16:42:24Z</time>
      </trkpt>
      <trkpt lat="43.93099" lon="5.75706">
        <ele>425</ele>
        <time>2017-01-02T16:42:44Z</time>
      </trkpt>
      <trkpt lat="43.93079" lon="5.75752">
        <ele>423</ele>
        <time>2017-01-02T16:43:04Z</time>
      </trkpt>
      <trkpt lat="43.93073" lon="5.75848">
        <ele>421</ele>
        <time>2017-01-02T16:43:24Z</time>
      </trkpt>
      <trkpt lat="43.93031" lon="5.75795">
        <ele>419</ele>
        <time>2017-01-02T16:43:44Z</time>
      </trkpt>
      <trkpt lat="43.93065" lon="5.75727">
        <ele>422</ele>
        <time>2017-01-02T16:44:04Z</time>
      </trkpt>
      <trkpt lat="43.93032" lon="5.75651">
        <ele>416</ele>
        <time>2017-01-02T16:44:24Z</time>
      </trkpt>
      <trkpt lat="43.92963" lon="5.75647">
        <ele>422</ele>
        <time>2017-01-02T16:44:44Z</time>
      </trkpt>
      <trkpt lat="43.92921" lon="5.7563">
        <ele>428</ele>
        <time>2017-01-02T16:45:04Z</time>
      </trkpt>
      <trkpt lat="43.92942" lon="5.75524">
        <ele>437</ele>
        <time>2017-01-02T16:45:24Z</time>
      </trkpt>
      <trkpt lat="43.92949" lon="5.75342">
        <ele>449</ele>
        <time>2017-01-02T16:45:44Z</time>
      </trkpt>
      <trkpt lat="43.92924" lon="5.75229">
        <ele>456</ele>
        <time>2017-01-02T16:46:04Z</time>
      </trkpt>
      <trkpt lat="43.92927" lon="5.75164">
        <ele>460</ele>
        <time>2017-01-02T16:46:24Z</time>
      </trkpt>
      <trkpt lat="43.92751" lon="5.75066">
        <ele>464</ele>
        <time>2017-01-02T16:46:44Z</time>
      </trkpt>
      <trkpt lat="43.92692" lon="5.75057">
        <ele>464</ele>
        <time>2017-01-02T16:47:04Z</time>
      </trkpt>
      <trkpt lat="43.926" lon="5.74971">
        <ele>460</ele>
        <time>2017-01-02T16:47:24Z</time>
      </trkpt>
      <trkpt lat="43.92587" lon="5.74888">
        <ele>465</ele>
        <time>2017-01-02T16:47:44Z</time>
      </trkpt>
      <trkpt lat="43.92477" lon="5.74964">
        <ele>468</ele>
        <time>2017-01-02T16:48:04Z</time>
      </trkpt>
      <trkpt lat="43.92447" lon="5.74908">
        <ele>469</ele>
        <time>2017-01-02T16:48:24Z</time>
      </trkpt>
      <trkpt lat="43.92414" lon="5.74898">
        <ele>467</ele>
        <time>2017-01-02T16:48:44Z</time>
      </trkpt>
      <trkpt lat="43.92353" lon="5.74731">
        <ele>457</ele>
        <time>2017-01-02T16:49:04Z</time>
      </trkpt>
      <trkpt lat="43.92321" lon="5.74811">
        <ele>451</ele>
        <time>2017-01-02T16:49:24Z</time>
      </trkpt>
      <trkpt lat="43.9227" lon="5.74883">
        <ele>450</ele>
        <time>2017-01-02T16:49:44Z</time>
      </trkpt>
      <trkpt lat="43.92212" lon="5.75014">
        <ele>441</ele>
        <time>2017-01-02T16:50:04Z</time>
      </trkpt>
      <trkpt lat="43.92193" lon="5.74967">
        <ele>444</ele>
        <time>2017-01-02T16:50:24Z</time>
      </trkpt>
      <trkpt lat="43.92258" lon="5.74731">
        <ele>459</ele>
        <time>2017-01-02T16:50:44Z</time>
      </trkpt>
      <trkpt lat="43.92206" lon="5.74728">
        <ele>465</ele>
        <time>2017-01-02T16:51:04Z</time>
      </trkpt>
      <trkpt lat="43.92153" lon="5.74677">
        <ele>469</ele>
        <time>2017-01-02T16:51:24Z</time>
      </trkpt>
      <trkpt lat="43.91985" lon="5.74555">
        <ele>478</ele>
        <time>2017-01-02T16:51:44Z</time>
      </trkpt>
      <trkpt lat="43.9192" lon="5.74538">
        <ele>480</ele>
        <time>2017-01-02T16:52:04Z</time>
      </trkpt>
      <trkpt lat="43.91882" lon="5.74458">
        <ele>484</ele>
        <time>2017-01-02T16:52:24Z</time>
      </trkpt>
      <trkpt lat="43.91903" lon="5.74418">
        <ele>487</ele>
        <time>2017-01-02T16:52:44Z</time>
      </trkpt>
      <trkpt lat="43.91927" lon="5.74313">
        <ele>491</ele>
        <time>2017-01-02T16:53:04Z</time>
      </trkpt>
      <trkpt lat="43.91858" lon="5.74158">
        <ele>494</ele>
        <time>2017-01-02T16:53:24Z</time>
      </trkpt>
      <trkpt lat="43.91807" lon="5.74137">
        <ele>498</ele>
        <time>2017-01-02T16:53:44Z</time>
      </trkpt>
      <trkpt lat="43.91716" lon="5.74083">
        <ele>508</ele>
        <time>2017-01-02T16:54:04Z</time>
      </trkpt>
      <trkpt lat="43.91654" lon="5.74184">
        <ele>501</ele>
        <time>2017-01-02T16:54:24Z</time>
      </trkpt>
      <trkpt lat="43.91576" lon="5.7421">
        <ele>499</ele>
        <time>2017-01-02T16:54:44Z</time>
      </trkpt>
      <trkpt lat="43.9153" lon="5.74259">
        <ele>498</ele>
        <time>2017-01-02T16:55:04Z</time>
      </trkpt>
      <trkpt lat="43.91517" lon="5.74216">
        <ele>500</ele>
        <time>2017-01-02T16:55:24Z</time>
      </trkpt>
      <trkpt lat="43.91436" lon="5.74208">
        <ele>502</ele>
        <time>2017-01-02T16:55:44Z</time>
      </trkpt>
      <trkpt lat="43.91439" lon="5.74068">
        <ele>510</ele>
        <time>2017-01-02T16:56:04Z</time>
      </trkpt>
      <trkpt lat="43.91468" lon="5.73898">
        <ele>520</ele>
        <time>2017-01-02T16:56:24Z</time>
      </trkpt>
      <trkpt lat="43.91378" lon="5.73645">
        <ele>535</ele>
        <time>2017-01-02T16:56:44Z</time>
      </trkpt>
      <trkpt lat="43.91351" lon="5.73607">
        <ele>530</ele>
        <time>2017-01-02T16:57:04Z</time>
      </trkpt>
      <trkpt lat="43.91382" lon="5.73561">
        <ele>528</ele>
        <time>2017-01-02T16:57:24Z</time>
      </trkpt>
      <trkpt lat="43.91436" lon="5.7346">
        <ele>516</ele>
        <time>2017-01-02T16:57:44Z</time>
      </trkpt>
      <trkpt lat="43.91456" lon="5.73368">
        <ele>511</ele>
        <time>2017-01-02T16:58:04Z</time>
      </trkpt>
      <trkpt lat="43.91355" lon="5.73364">
        <ele>510</ele>
        <time>2017-01-02T16:58:24Z</time>
      </trkpt>
      <trkpt lat="43.91309" lon="5.73335">
        <ele>512</ele>
        <time>2017-01-02T16:58:44Z</time>
      </trkpt>
      <trkpt lat="43.91266" lon="5.73216">
        <ele>513</ele>
        <time>2017-01-02T16:59:04Z</time>
      </trkpt>
      <trkpt lat="43.913" lon="5.73014">
        <ele>519</ele>
        <time>2017-01-02T16:59:24Z</time>
      </trkpt>
      <trkpt lat="43.91292" lon="5.72961">
        <ele>517</ele>
        <time>2017-01-02T16:59:44Z</time>
      </trkpt>
      <trkpt lat="43.91315" lon="5.72815">
        <ele>517</ele>
        <time>2017-01-02T17:00:04Z</time>
      </trkpt>
      <trkpt lat="43.9128" lon="5.72714">
        <ele>516</ele>
        <time>2017-01-02T17:00:24Z</time>
      </trkpt>
      <trkpt lat="43.91255" lon="5.72613">
        <ele>516</ele>
        <time>2017-01-02T17:00:44Z</time>
      </trkpt>
      <trkpt lat="43.91275" lon="5.72493">
        <ele>518</ele>
        <time>2017-01-02T17:01:04Z</time>
      </trkpt>
      <trkpt lat="43.91278" lon="5.72456">
        <ele>514</ele>
        <time>2017-01-02T17:01:24Z</time>
      </trkpt>
      <trkpt lat="43.91269" lon="5.72403">
        <ele>508</ele>
        <time>2017-01-02T17:01:44Z</time>
      </trkpt>
      <trkpt lat="43.91244" lon="5.72345">
        <ele>502</ele>
        <time>2017-01-02T17:02:04Z</time>
      </trkpt>
      <trkpt lat="43.91204" lon="5.72261">
        <ele>508</ele>
        <time>2017-01-02T17:02:24Z</time>
      </trkpt>
      <trkpt lat="43.91221" lon="5.72113">
        <ele>517</ele>
        <time>2017-01-02T17:02:44Z</time>
      </trkpt>
      <trkpt lat="43.91216" lon="5.71967">
        <ele>527</ele>
        <time>2017-01-02T17:03:04Z</time>
      </trkpt>
      <trkpt lat="43.9119" lon="5.71832">
        <ele>538</ele>
        <time>2017-01-02T17:03:24Z</time>
      </trkpt>
      <trkpt lat="43.91134" lon="5.71637">
        <ele>560</ele>
        <time>2017-01-02T17:03:44Z</time>
      </trkpt>
      <trkpt lat="43.91081" lon="5.71591">
        <ele>568</ele>
        <time>2017-01-02T17:04:04Z</time>
      </trkpt>
      <trkpt lat="43.91011" lon="5.71536">
        <ele>573</ele>
        <time>2017-01-02T17:04:24Z</time>
      </trkpt>
      <trkpt lat="43.91002" lon="5.7157">
        <ele>571</ele>
        <time>2017-01-02T17:04:44Z</time>
      </trkpt>
      <trkpt lat="43.90928" lon="5.71612">
        <ele>565</ele>
        <time>2017-01-02T17:05:04Z</time>
      </trkpt>
      <trkpt lat="43.90831" lon="5.71639">
        <ele>555</ele>
        <time>2017-01-02T17:05:24Z</time>
      </trkpt>
      <trkpt lat="43.90632" lon="5.71473">
        <ele>542</ele>
        <time>2017-01-02T17:05:44Z</time>
      </trkpt>
      <trkpt lat="43.90593" lon="5.71426">
        <ele>545</ele>
        <time>2017-01-02T17:06:04Z</time>
      </trkpt>
      <trkpt lat="43.90459" lon="5.71377">
        <ele>551</ele>
        <time>2017-01-02T17:06:24Z</time>
      </trkpt>
      <trkpt lat="43.90395" lon="5.71488">
        <ele>550</ele>
        <time>2017-01-02T17:06:44Z</time>
      </trkpt>
      <trkpt lat="43.90324" lon="5.71551">
        <ele>547</ele>
        <time>2017-01-02T17:07:04Z</time>
      </trkpt>
      <trkpt lat="43.90224" lon="5.7157">
        <ele>546</ele>
        <time>2017-01-02T17:07:24Z</time>
      </trkpt>
      <trkpt lat="43.90184" lon="5.71699">
        <ele>550</ele>
        <time>2017-01-02T17:07:44Z</time>
      </trkpt>
      <trkpt lat="43.90153" lon="5.71718">
        <ele>551</ele>
        <time>2017-01-02T17:08:04Z</time>
      </trkpt>
      <trkpt lat="43.90115" lon="5.71793">
        <ele>559</ele>
        <time>2017-01-02T17:08:24Z</time>
      </trkpt>
      <trkpt lat="43.9014" lon="5.72042">
        <ele>558</ele>
        <time>2017-01-02T17:08:44Z</time>
      </trkpt>
      <trkpt lat="43.90123" lon="5.72147">
        <ele>562</ele>
        <time>2017-01-02T17:09:04Z</time>
      </trkpt>
      <trkpt lat="43.90114" lon="5.7218">
        <ele>562</ele>
        <time>2017-01-02T17:09:24Z</time>
      </trkpt>
      <trkpt lat="43.90011" lon="5.72289">
        <ele>559</ele>
        <time>2017-01-02T17:09:44Z</time>
      </trkpt>
      <trkpt lat="43.90012" lon="5.72347">
        <ele>556</ele>
        <time>2017-01-02T17:10:04Z</time>
      </trkpt>
      <trkpt lat="43.89981" lon="5.72437">
        <ele>549</ele>
        <time>2017-01-02T17:10:24Z</time>
      </trkpt>
      <trkpt lat="43.89989" lon="5.72547">
        <ele>543</ele>
        <time>2017-01-02T17:10:44Z</time>
      </trkpt>
      <trkpt lat="43.89949" lon="5.726">
        <ele>538</ele>
        <time>2017-01-02T17:11:04Z</time>
      </trkpt>
      <trkpt lat="43.8991" lon="5.72645">
        <ele>535</ele>
        <time>2017-01-02T17:11:24Z</time>
      </trkpt>
      <trkpt lat="43.89836" lon="5.72815">
        <ele>523</ele>
        <time>2017-01-02T17:11:44Z</time>
      </trkpt>
      <trkpt lat="43.89782" lon="5.72823">
        <ele>520</ele>
        <time>2017-01-02T17:12:04Z</time>
      </trkpt>
      <trkpt lat="43.89751" lon="5.72817">
        <ele>518</ele>
        <time>2017-01-02T17:12:24Z</time>
      </trkpt>
      <trkpt lat="43.897" lon="5.72804">
        <ele>516</ele>
        <time>2017-01-02T17:12:44Z</time>
      </trkpt>
      <trkpt lat="43.89604" lon="5.72768">
        <ele>512</ele>
        <time>2017-01-02T17:13:04Z</time>
      </trkpt>
      <trkpt lat="43.89568" lon="5.72768">
        <ele>510</ele>
        <time>2017-01-02T17:13:24Z</time>
      </trkpt>
      <trkpt lat="43.89554" lon="5.7274">
        <ele>510</ele>
        <time>2017-01-02T17:13:44Z</time>
      </trkpt>
      <trkpt lat="43.8952" lon="5.72776">
        <ele>506</ele>
        <time>2017-01-02T17:14:04Z</time>
      </trkpt>
      <trkpt lat="43.89447" lon="5.72785">
        <ele>502</ele>
        <time>2017-01-02T17:14:24Z</time>
      </trkpt>
      <trkpt lat="43.89366" lon="5.72862">
        <ele>495</ele>
        <time>2017-01-02T17:14:44Z</time>
      </trkpt>
      <trkpt lat="43.89313" lon="5.72894">
        <ele>492</ele>
        <time>2017-01-02T17:15:04Z</time>
      </trkpt>
      <trkpt lat="43.89262" lon="5.72907">
        <ele>491</ele>
        <time>2017-01-02T17:15:24Z</time>
      </trkpt>
      <trkpt lat="43.89208" lon="5.72933">
        <ele>489</ele>
        <time>2017-01-02T17:15:44Z</time>
      </trkpt>
      <trkpt lat="43.89172" lon="5.72897">
        <ele>489</ele>
        <time>2017-01-02T17:16:04Z</time>
      </trkpt>
      <trkpt lat="43.8905" lon="5.72797">
        <ele>487</ele>
        <time>2017-01-02T17:16:24Z</time>
      </trkpt>
      <trkpt lat="43.8896" lon="5.727">
        <ele>485</ele>
        <time>2017-01-02T17:16:44Z</time>
      </trkpt>
      <trkpt lat="43.88916" lon="5.7265">
        <ele>482</ele>
        <time>2017-01-02T17:17:04Z</time>
      </trkpt>
      <trkpt lat="43.88853" lon="5.72616">
        <ele>471</ele>
        <time>2017-01-02T17:17:24Z</time>
      </trkpt>
      <trkpt lat="43.88834" lon="5.7252">
        <ele>464</ele>
        <time>2017-01-02T17:17:44Z</time>
      </trkpt>
      <trkpt lat="43.88859" lon="5.72395">
        <ele>463</ele>
        <time>2017-01-02T17:18:04Z</time>
      </trkpt>
      <trkpt lat="43.88936" lon="5.72244">
        <ele>456</ele>
        <time>2017-01-02T17:18:24Z</time>
      </trkpt>
      <trkpt lat="43.88905" lon="5.72131">
        <ele>464</ele>
        <time>2017-01-02T17:18:44Z</time>
      </trkpt>
      <trkpt lat="43.88697" lon="5.72027">
        <ele>487</ele>
        <time>2017-01-02T17:19:04Z</time>
      </trkpt>
      <trkpt lat="43.8869" lon="5.71982">
        <ele>488</ele>
        <time>2017-01-02T17:19:24Z</time>
      </trkpt>
      <trkpt lat="43.88812" lon="5.71926">
        <ele>494</ele>
        <time>2017-01-02T17:19:44Z</time>
      </trkpt>
      <trkpt lat="43.88838" lon="5.71894">
        <ele>496</ele>
        <time>2017-01-02T17:20:04Z</time>
      </trkpt>
      <trkpt lat="43.88858" lon="5.71804">
        <ele>502</ele>
        <time>2017-01-02T17:20:24Z</time>
      </trkpt>
      <trkpt lat="43.88903" lon="5.71714">
        <ele>510</ele>
        <time>2017-01-02T17:20:44Z</time>
      </trkpt>
      <trkpt lat="43.88942" lon="5.71591">
        <ele>526</ele>
        <time>2017-01-02T17:21:04Z</time>
      </trkpt>
      <trkpt lat="43.88975" lon="5.71519">
        <ele>539</ele>
        <time>2017-01-02T17:21:24Z</time>
      </trkpt>
      <trkpt lat="43.89022" lon="5.71247">
        <ele>578</ele>
        <time>2017-01-02T17:21:44Z</time>
      </trkpt>
      <trkpt lat="43.88998" lon="5.71047">
        <ele>585</ele>
        <time>2017-01-02T17:22:04Z</time>
      </trkpt>
      <trkpt lat="43.88974" lon="5.70908">
        <ele>587</ele>
        <time>2017-01-02T17:22:24Z</time>
      </trkpt>
      <trkpt lat="43.8894" lon="5.70835">
        <ele>577</ele>
        <time>2017-01-02T17:22:44Z</time>
      </trkpt>
      <trkpt lat="43.88935" lon="5.70778">
        <ele>573</ele>
        <time>2017-01-02T17:23:04Z</time>
      </trkpt>
      <trkpt lat="43.88907" lon="5.70797">
        <ele>567</ele>
        <time>2017-01-02T17:23:24Z</time>
      </trkpt>
      <trkpt lat="43.88835" lon="5.70823">
        <ele>558</ele>
        <time>2017-01-02T17:23:44Z</time>
      </trkpt>
      <trkpt lat="43.88794" lon="5.70823">
        <ele>554</ele>
        <time>2017-01-02T17:24:04Z</time>
      </trkpt>
      <trkpt lat="43.88748" lon="5.70847">
        <ele>550</ele>
        <time>2017-01-02T17:24:24Z</time>
      </trkpt>
      <trkpt lat="43.88697" lon="5.70844">
        <ele>545</ele>
        <time>2017-01-02T17:24:44Z</time>
      </trkpt>
      <trkpt lat="43.88634" lon="5.70905">
        <ele>534</ele>
        <time>2017-01-02T17:25:04Z</time>
      </trkpt>
      <trkpt lat="43.886" lon="5.70761">
        <ele>528</ele>
        <time>2017-01-02T17:25:24Z</time>
      </trkpt>
      <trkpt lat="43.886" lon="5.70736">
        <ele>528</ele>
        <time>2017-01-02T17:25:44Z</time>
      </trkpt>
      <trkpt lat="43.88567" lon="5.70653">
        <ele>524</ele>
        <time>2017-01-02T17:26:04Z</time>
      </trkpt>
      <trkpt lat="43.88489" lon="5.70615">
        <ele>515</ele>
        <time>2017-01-02T17:26:24Z</time>
      </trkpt>
      <trkpt lat="43.88408" lon="5.70581">
        <ele>503</ele>
        <time>2017-01-02T17:26:44Z</time>
      </trkpt>
      <trkpt lat="43.88265" lon="5.70542">
        <ele>483</ele>
        <time>2017-01-02T17:27:04Z</time>
      </trkpt>
      <trkpt lat="43.88234" lon="5.70523">
        <ele>480</ele>
        <time>2017-01-02T17:27:24Z</time>
      </trkpt>
      <trkpt lat="43.88179" lon="5.7056">
        <ele>471</ele>
        <time>2017-01-02T17:27:44Z</time>
      </trkpt>
      <trkpt lat="43.88104" lon="5.70577">
        <ele>463</ele>
        <time>2017-01-02T17:28:04Z</time>
      </trkpt>
      <trkpt lat="43.88036" lon="5.70577">
        <ele>455</ele>
        <time>2017-01-02T17:28:24Z</time>
      </trkpt>
      <trkpt lat="43.88015" lon="5.70517">
        <ele>453</ele>
        <time>2017-01-02T17:28:44Z</time>
      </trkpt>
      <trkpt lat="43.87993" lon="5.7032">
        <ele>447</ele>
        <time>2017-01-02T17:29:04Z</time>
      </trkpt>
      <trkpt lat="43.87975" lon="5.70292">
        <ele>446</ele>
        <time>2017-01-02T17:29:24Z</time>
      </trkpt>
      <trkpt lat="43.87944" lon="5.70298">
        <ele>442</ele>
        <time>2017-01-02T17:29:44Z</time>
      </trkpt>
      <trkpt lat="43.87859" lon="5.7035">
        <ele>448</ele>
        <time>2017-01-02T17:30:04Z</time>
      </trkpt>
      <trkpt lat="43.87853" lon="5.70216">
        <ele>464</ele>
        <time>2017-01-02T17:30:24Z</time>
      </trkpt>
      <trkpt lat="43.87882" lon="5.70129">
        <ele>469</ele>
        <time>2017-01-02T17:30:44Z</time>
      </trkpt>
      <trkpt lat="43.87952" lon="5.69993">
        <ele>480</ele>
        <time>2017-01-02T17:31:04Z</time>
      </trkpt>
      <trkpt lat="43.87957" lon="5.69951">
        <ele>485</ele>
        <time>2017-01-02T17:31:24Z</time>
      </trkpt>
      <trkpt lat="43.8799" lon="5.699">
        <ele>490</ele>
        <time>2017-01-02T17:31:44Z</time>
      </trkpt>
      <trkpt lat="43.87936" lon="5.69755">
        <ele>507</ele>
        <time>2017-01-02T17:32:04Z</time>
      </trkpt>
      <trkpt lat="43.87934" lon="5.69708">
        <ele>515</ele>
        <time>2017-01-02T17:32:24Z</time>
      </trkpt>
      <trkpt lat="43.87897" lon="5.69624">
        <ele>526</ele>
        <time>2017-01-02T17:32:44Z</time>
      </trkpt>
      <trkpt lat="43.87876" lon="5.69538">
        <ele>532</ele>
        <time>2017-01-02T17:33:04Z</time>
      </trkpt>
      <trkpt lat="43.87853" lon="5.69435">
        <ele>538</ele>
        <time>2017-01-02T17:33:24Z</time>
      </trkpt>
      <trkpt lat="43.87834" lon="5.69266">
        <ele>547</ele>
        <time>2017-01-02T17:33:44Z</time>
      </trkpt>
      <trkpt lat="43.87816" lon="5.69197">
        <ele>550</ele>
        <time>2017-01-02T17:34:04Z</time>
      </trkpt>
      <trkpt lat="43.87811" lon="5.69104">
        <ele>552</ele>
        <time>2017-01-02T17:34:24Z</time>
      </trkpt>
      <trkpt lat="43.87832" lon="5.69023">
        <ele>556</ele>
        <time>2017-01-02T17:34:44Z</time>
      </trkpt>
      <trkpt lat="43.87859" lon="5.68933">
        <ele>560</ele>
        <time>2017-01-02T17:35:04Z</time>
      </trkpt>
      <trkpt lat="43.87872" lon="5.68886">
        <ele>560</ele>
        <time>2017-01-02T17:35:24Z</time>
      </trkpt>
      <trkpt lat="43.87901" lon="5.68787">
        <ele>563</ele>
        <time>2017-01-02T17:35:44Z</time>
      </trkpt>
      <trkpt lat="43.8792" lon="5.6868">
        <ele>568</ele>
        <time>2017-01-02T17:36:04Z</time>
      </trkpt>
      <trkpt lat="43.87884" lon="5.68545">
        <ele>579</ele>
        <time>2017-01-02T17:36:24Z</time>
      </trkpt>
      <trkpt lat="43.87865" lon="5.68525">
        <ele>579</ele>
        <time>2017-01-02T17:36:44Z</time>
      </trkpt>
      <trkpt lat="43.87856" lon="5.68481">
        <ele>578</ele>
        <time>2017-01-02T17:37:04Z</time>
      </trkpt>
      <trkpt lat="43.87881" lon="5.68373">
        <ele>568</ele>
        <time>2017-01-02T17:37:24Z</time>
      </trkpt>
      <trkpt lat="43.87872" lon="5.6818">
        <ele>560</ele>
        <time>2017-01-02T17:37:44Z</time>
      </trkpt>
      <trkpt lat="43.8788" lon="5.6812">
        <ele>560</ele>
        <time>2017-01-02T17:38:04Z</time>
      </trkpt>
      <trkpt lat="43.87875" lon="5.6774">
        <ele>550</ele>
        <time>2017-01-02T17:38:24Z</time>
      </trkpt>
      <trkpt lat="43.87855" lon="5.67465">
        <ele>550</ele>
        <time>2017-01-02T17:38:44Z</time>
      </trkpt>
      <trkpt lat="43.87811" lon="5.67326">
        <ele>549</ele>
        <time>2017-01-02T17:39:04Z</time>
      </trkpt>
      <trkpt lat="43.87745" lon="5.67176">
        <ele>549</ele>
        <time>2017-01-02T17:39:24Z</time>
      </trkpt>
      <trkpt lat="43.87723" lon="5.67075">
        <ele>550</ele>
        <time>2017-01-02T17:39:44Z</time>
      </trkpt>
      <trkpt lat="43.87802" lon="5.6689">
        <ele>558</ele>
        <time>2017-01-02T17:40:04Z</time>
      </trkpt>
      <trkpt lat="43.87782" lon="5.66684">
        <ele>552</ele>
        <time>2017-01-02T17:40:24Z</time>
      </trkpt>
      <trkpt lat="43.87816" lon="5.66616">
        <ele>545</ele>
        <time>2017-01-02T17:40:44Z</time>
      </trkpt>
      <trkpt lat="43.8786" lon="5.66581">
        <ele>540</ele>
        <time>2017-01-02T17:41:04Z</time>
      </trkpt>
      <trkpt lat="43.8796" lon="5.66386">
        <ele>539</ele>
        <time>2017-01-02T17:41:24Z</time>
      </trkpt>
      <trkpt lat="43.87982" lon="5.66287">
        <ele>544</ele>
        <time>2017-01-02T17:41:44Z</time>
      </trkpt>
      <trkpt lat="43.88048" lon="5.6616">
        <ele>546</ele>
        <time>2017-01-02T17:42:04Z</time>
      </trkpt>
      <trkpt lat="43.88043" lon="5.66134">
        <ele>546</ele>
        <time>2017-01-02T17:42:24Z</time>
      </trkpt>
      <trkpt lat="43.88025" lon="5.66107">
        <ele>545</ele>
        <time>2017-01-02T17:42:44Z</time>
      </trkpt>
      <trkpt lat="43.87924" lon="5.66068">
        <ele>543</ele>
        <time>2017-01-02T17:43:04Z</time>
      </trkpt>
      <trkpt lat="43.87915" lon="5.66026">
        <ele>549</ele>
        <time>2017-01-02T17:43:24Z</time>
      </trkpt>
      <trkpt lat="43.87901" lon="5.66026">
        <ele>549</ele>
        <time>2017-01-02T17:43:44Z</time>
      </trkpt>
      <trkpt lat="43.87895" lon="5.65886">
        <ele>549</ele>
        <time>2017-01-02T17:44:04Z</time>
      </trkpt>
      <trkpt lat="43.88008" lon="5.65884">
        <ele>557</ele>
        <time>2017-01-02T17:44:24Z</time>
      </trkpt>
      <trkpt lat="43.88011" lon="5.65423">
        <ele>560</ele>
        <time>2017-01-02T17:44:44Z</time>
      </trkpt>
      <trkpt lat="43.88042" lon="5.65322">
        <ele>563</ele>
        <time>2017-01-02T17:45:04Z</time>
      </trkpt>
      <trkpt lat="43.88048" lon="5.65202">
        <ele>563</ele>
        <time>2017-01-02T17:45:24Z</time>
      </trkpt>
      <trkpt lat="43.88043" lon="5.65124">
        <ele>564</ele>
        <time>2017-01-02T17:45:44Z</time>
      </trkpt>
      <trkpt lat="43.88051" lon="5.65054">
        <ele>566</ele>
        <time>2017-01-02T17:46:04Z</time>
      </trkpt>
      <trkpt lat="43.88041" lon="5.65031">
        <ele>566</ele>
        <time>2017-01-02T17:46:24Z</time>
      </trkpt>
      <trkpt lat="43.8807" lon="5.64976">
        <ele>570</ele>
        <time>2017-01-02T17:46:44Z</time>
      </trkpt>
      <trkpt lat="43.88073" lon="5.64931">
        <ele>571</ele>
        <time>2017-01-02T17:47:04Z</time>
      </trkpt>
      <trkpt lat="43.88199" lon="5.64662">
        <ele>590</ele>
        <time>2017-01-02T17:47:24Z</time>
      </trkpt>
      <trkpt lat="43.88234" lon="5.6452">
        <ele>593</ele>
        <time>2017-01-02T17:47:44Z</time>
      </trkpt>
      <trkpt lat="43.8825" lon="5.64157">
        <ele>589</ele>
        <time>2017-01-02T17:48:04Z</time>
      </trkpt>
      <trkpt lat="43.88237" lon="5.64013">
        <ele>587</ele>
        <time>2017-01-02T17:48:24Z</time>
      </trkpt>
      <trkpt lat="43.88237" lon="5.63938">
        <ele>590</ele>
        <time>2017-01-02T17:48:44Z</time>
      </trkpt>
      <trkpt lat="43.88254" lon="5.63792">
        <ele>599</ele>
        <time>2017-01-02T17:49:04Z</time>
      </trkpt>
      <trkpt lat="43.88316" lon="5.63558">
        <ele>608</ele>
        <time>2017-01-02T17:49:24Z</time>
      </trkpt>
      <trkpt lat="43.88371" lon="5.63401">
        <ele>617</ele>
        <time>2017-01-02T17:49:44Z</time>
      </trkpt>
      <trkpt lat="43.88388" lon="5.63279">
        <ele>617</ele>
        <time>2017-01-02T17:50:04Z</time>
      </trkpt>
      <trkpt lat="43.88373" lon="5.63249">
        <ele>615</ele>
        <time>2017-01-02T17:50:24Z</time>
      </trkpt>
      <trkpt lat="43.88365" lon="5.632">
        <ele>610</ele>
        <time>2017-01-02T17:50:44Z</time>
      </trkpt>
      <trkpt lat="43.88336" lon="5.63159">
        <ele>606</ele>
        <time>2017-01-02T17:51:04Z</time>
      </trkpt>
      <trkpt lat="43.88277" lon="5.63084">
        <ele>598</ele>
        <time>2017-01-02T17:51:24Z</time>
      </trkpt>
      <trkpt lat="43.88199" lon="5.63009">
        <ele>585</ele>
        <time>2017-01-02T17:51:44Z</time>
      </trkpt>
      <trkpt lat="43.88135" lon="5.62981">
        <ele>580</ele>
        <time>2017-01-02T17:52:04Z</time>
      </trkpt>
      <trkpt lat="43.88077" lon="5.62896">
        <ele>574</ele>
        <time>2017-01-02T17:52:24Z</time>
      </trkpt>
      <trkpt lat="43.88103" lon="5.62852">
        <ele>569</ele>
        <time>2017-01-02T17:52:44Z</time>
      </trkpt>
      <trkpt lat="43.88179" lon="5.62881">
        <ele>568</ele>
        <time>2017-01-02T17:53:04Z</time>
      </trkpt>
      <trkpt lat="43.88234" lon="5.62876">
        <ele>561</ele>
        <time>2017-01-02T17:53:24Z</time>
      </trkpt>
      <trkpt lat="43.88317" lon="5.62897">
        <ele>556</ele>
        <time>2017-01-02T17:53:44Z</time>
      </trkpt>
      <trkpt lat="43.88408" lon="5.62891">
        <ele>547</ele>
        <time>2017-01-02T17:54:04Z</time>
      </trkpt>
      <trkpt lat="43.88496" lon="5.62903">
        <ele>543</ele>
        <time>2017-01-02T17:54:24Z</time>
      </trkpt>
      <trkpt lat="43.88569" lon="5.6285">
        <ele>531</ele>
        <time>2017-01-02T17:54:44Z</time>
      </trkpt>
      <trkpt lat="43.8849" lon="5.62828">
        <ele>529</ele>
        <time>2017-01-02T17:55:04Z</time>
      </trkpt>
      <trkpt lat="43.88459" lon="5.62799">
        <ele>525</ele>
        <time>2017-01-02T17:55:24Z</time>
      </trkpt>
      <trkpt lat="43.88401" lon="5.62803">
        <ele>530</ele>
        <time>2017-01-02T17:55:44Z</time>
      </trkpt>
      <trkpt lat="43.88303" lon="5.62749">
        <ele>525</ele>
        <time>2017-01-02T17:56:04Z</time>
      </trkpt>
      <trkpt lat="43.88271" lon="5.62718">
        <ele>524</ele>
        <time>2017-01-02T17:56:24Z</time>
      </trkpt>
      <trkpt lat="43.88249" lon="5.62676">
        <ele>519</ele>
        <time>2017-01-02T17:56:44Z</time>
      </trkpt>
      <trkpt lat="43.88173" lon="5.62603">
        <ele>518</ele>
        <time>2017-01-02T17:57:04Z</time>
      </trkpt>
      <trkpt lat="43.88087" lon="5.62545">
        <ele>517</ele>
        <time>2017-01-02T17:57:24Z</time>
      </trkpt>
      <trkpt lat="43.87955" lon="5.62419">
        <ele>512</ele>
        <time>2017-01-02T17:57:44Z</time>
      </trkpt>
      <trkpt lat="43.87849" lon="5.62166">
        <ele>495</ele>
        <time>2017-01-02T17:58:04Z</time>
      </trkpt>
      <trkpt lat="43.8778" lon="5.62013">
        <ele>486</ele>
        <time>2017-01-02T17:58:24Z</time>
      </trkpt>
      <trkpt lat="43.87615" lon="5.61753">
        <ele>477</ele>
        <time>2017-01-02T17:58:44Z</time>
      </trkpt>
      <trkpt lat="43.87579" lon="5.61745">
        <ele>481</ele>
        <time>2017-01-02T17:59:04Z</time>
      </trkpt>
      <trkpt lat="43.87502" lon="5.61614">
        <ele>469</ele>
        <time>2017-01-02T17:59:24Z</time>
      </trkpt>
      <trkpt lat="43.8744" lon="5.61596">
        <ele>468</ele>
        <time>2017-01-02T17:59:44Z</time>
      </trkpt>
      <trkpt lat="43.87314" lon="5.61619">
        <ele>462</ele>
        <time>2017-01-02T18:00:04Z</time>
      </trkpt>
      <trkpt lat="43.87258" lon="5.61655">
        <ele>458</ele>
        <time>2017-01-02T18:00:24Z</time>
      </trkpt>
      <trkpt lat="43.87128" lon="5.61791">
        <ele>449</ele>
        <time>2017-01-02T18:00:44Z</time>
      </trkpt>
      <trkpt lat="43.87132" lon="5.6177">
        <ele>447</ele>
        <time>2017-01-02T18:01:04Z</time>
      </trkpt>
      <trkpt lat="43.87117" lon="5.61716">
        <ele>447</ele>
        <time>2017-01-02T18:01:24Z</time>
      </trkpt>
      <trkpt lat="43.871" lon="5.61679">
        <ele>452</ele>
        <time>2017-01-02T18:01:44Z</time>
      </trkpt>
      <trkpt lat="43.87104" lon="5.61646">
        <ele>456</ele>
        <time>2017-01-02T18:02:04Z</time>
      </trkpt>
      <trkpt lat="43.87067" lon="5.61551">
        <ele>462</ele>
        <time>2017-01-02T18:02:24Z</time>
      </trkpt>
      <trkpt lat="43.87094" lon="5.61418">
        <ele>461</ele>
        <time>2017-01-02T18:02:44Z</time>
      </trkpt>
      <trkpt lat="43.87095" lon="5.61369">
        <ele>461</ele>
        <time>2017-01-02T18:03:04Z</time>
      </trkpt>
      <trkpt lat="43.87138" lon="5.61273">
        <ele>465</ele>
        <time>2017-01-02T18:03:24Z</time>
      </trkpt>
      <trkpt lat="43.87139" lon="5.61236">
        <ele>464</ele>
        <time>2017-01-02T18:03:44Z</time>
      </trkpt>
      <trkpt lat="43.87128" lon="5.61127">
        <ele>463</ele>
        <time>2017-01-02T18:04:04Z</time>
      </trkpt>
      <trkpt lat="43.87111" lon="5.61102">
        <ele>461</ele>
        <time>2017-01-02T18:04:24Z</time>
      </trkpt>
      <trkpt lat="43.87109" lon="5.61008">
        <ele>463</ele>
        <time>2017-01-02T18:04:44Z</time>
      </trkpt>
      <trkpt lat="43.87076" lon="5.60889">
        <ele>457</ele>
        <time>2017-01-02T18:05:04Z</time>
      </trkpt>
      <trkpt lat="43.87071" lon="5.60815">
        <ele>456</ele>
        <time>2017-01-02T18:05:24Z</time>
      </trkpt>
      <trkpt lat="43.87039" lon="5.60738">
        <ele>449</ele>
        <time>2017-01-02T18:05:44Z</time>
      </trkpt>
      <trkpt lat="43.8696" lon="5.60727">
        <ele>438</ele>
        <time>2017-01-02T18:06:04Z</time>
      </trkpt>
      <trkpt lat="43.86896" lon="5.60699">
        <ele>433</ele>
        <time>2017-01-02T18:06:24Z</time>
      </trkpt>
      <trkpt lat="43.86828" lon="5.60705">
        <ele>426</ele>
        <time>2017-01-02T18:06:44Z</time>
      </trkpt>
      <trkpt lat="43.86813" lon="5.60699">
        <ele>426</ele>
        <time>2017-01-02T18:07:04Z</time>
      </trkpt>
      <trkpt lat="43.86755" lon="5.60731">
        <ele>424</ele>
        <time>2017-01-02T18:07:24Z</time>
      </trkpt>
      <trkpt lat="43.8666" lon="5.60751">
        <ele>421</ele>
        <time>2017-01-02T18:07:44Z</time>
      </trkpt>
      <trkpt lat="43.86638" lon="5.60748">
        <ele>420</ele>
        <time>2017-01-02T18:08:04Z</time>
      </trkpt>
      <trkpt lat="43.86612" lon="5.60757">
        <ele>418</ele>
        <time>2017-01-02T18:08:24Z</time>
      </trkpt>
      <trkpt lat="43.86474" lon="5.60642">
        <ele>405</ele>
        <time>2017-01-02T18:08:44Z</time>
      </trkpt>
      <trkpt lat="43.86449" lon="5.60628">
        <ele>403</ele>
        <time>2017-01-02T18:09:04Z</time>
      </trkpt>
      <trkpt lat="43.86429" lon="5.60583">
        <ele>401</ele>
        <time>2017-01-02T18:09:24Z</time>
      </trkpt>
      <trkpt lat="43.86366" lon="5.60542">
        <ele>396</ele>
        <time>2017-01-02T18:09:44Z</time>
      </trkpt>
      <trkpt lat="43.86314" lon="5.60517">
        <ele>393</ele>
        <time>2017-01-02T18:10:04Z</time>
      </trkpt>
      <trkpt lat="43.86301" lon="5.60503">
        <ele>392</ele>
        <time>2017-01-02T18:10:24Z</time>
      </trkpt>
      <trkpt lat="43.86248" lon="5.60497">
        <ele>389</ele>
        <time>2017-01-02T18:10:44Z</time>
      </trkpt>
      <trkpt lat="43.86117" lon="5.60455">
        <ele>380</ele>
        <time>2017-01-02T18:11:04Z</time>
      </trkpt>
      <trkpt lat="43.8608" lon="5.60458">
        <ele>380</ele>
        <time>2017-01-02T18:11:24Z</time>
      </trkpt>
      <trkpt lat="43.86043" lon="5.60435">
        <ele>378</ele>
        <time>2017-01-02T18:11:44Z</time>
      </trkpt>
      <trkpt lat="43.85962" lon="5.6043">
        <ele>373</ele>
        <time>2017-01-02T18:12:04Z</time>
      </trkpt>
      <trkpt lat="43.85926" lon="5.60395">
        <ele>370</ele>
        <time>2017-01-02T18:12:24Z</time>
      </trkpt>
      <trkpt lat="43.85898" lon="5.60319">
        <ele>368</ele>
        <time>2017-01-02T18:12:44Z</time>
      </trkpt>
      <trkpt lat="43.85904" lon="5.6006">
        <ele>369</ele>
        <time>2017-01-02T18:13:04Z</time>
      </trkpt>
      <trkpt lat="43.85918" lon="5.59878">
        <ele>369</ele>
        <time>2017-01-02T18:13:24Z</time>
      </trkpt>
      <trkpt lat="43.85929" lon="5.59771">
        <ele>368</ele>
        <time>2017-01-02T18:13:44Z</time>
      </trkpt>
      <trkpt lat="43.8596" lon="5.59738">
        <ele>368</ele>
        <time>2017-01-02T18:14:04Z</time>
      </trkpt>
      <trkpt lat="43.85943" lon="5.59663">
        <ele>369</ele>
        <time>2017-01-02T18:14:24Z</time>
      </trkpt>
      <trkpt lat="43.85941" lon="5.59535">
        <ele>369</ele>
        <time>2017-01-02T18:14:44Z</time>
      </trkpt>
      <trkpt lat="43.8591" lon="5.5947">
        <ele>368</ele>
        <time>2017-01-02T18:15:04Z</time>
      </trkpt>
      <trkpt lat="43.8589" lon="5.59487">
        <ele>368</ele>
        <time>2017-01-02T18:15:24Z</time>
      </trkpt>
      <trkpt lat="43.85814" lon="5.59423">
        <ele>367</ele>
        <time>2017-01-02T18:15:44Z</time>
      </trkpt>
      <trkpt lat="43.85754" lon="5.59402">
        <ele>374</ele>
        <time>2017-01-02T18:16:04Z</time>
      </trkpt>
      <trkpt lat="43.85735" lon="5.59346">
        <ele>376</ele>
        <time>2017-01-02T18:16:24Z</time>
      </trkpt>
      <trkpt lat="43.85705" lon="5.59232">
        <ele>375</ele>
        <time>2017-01-02T18:16:44Z</time>
      </trkpt>
      <trkpt lat="43.85643" lon="5.59103">
        <ele>381</ele>
        <time>2017-01-02T18:17:04Z</time>
      </trkpt>
      <trkpt lat="43.85643" lon="5.59103">
        <ele>381</ele>
        <time>2017-01-02T18:17:24Z</time>
      </trkpt>
      <trkpt lat="43.85621" lon="5.5912">
        <ele>382</ele>
        <time>2017-01-02T18:17:44Z</time>
      </trkpt>
      <trkpt lat="43.85616" lon="5.59029">
        <ele>386</ele>
        <time>2017-01-02T18:18:04Z</time>
      </trkpt>
    </trkseg>
  </trk>
</gpx>